<?xml version="1.0" encoding="UTF-8" standalone="no" ?>
<gpx xmlns="http://www.topografix.com/GPX/1/1" creator="CompeGPS" version="1.1" xmlns:xsi="http://www.w3.org/2001/XMLSchema-instance" xsi:schemaLocation="http://www.topografix.com/GPX/1/1 http://www.topografix.com/GPX/1/1/gpx.xsd http://www.garmin.com/xmlschemas/GpxExtensions/v3 http://www.garmin.com/xmlschemas/GpxExtensionsv3.xsd http://www.garmin.com/xmlschemas/TrackPointExtension/v1 http://www.garmin.com/xmlschemas/TrackPointExtensionv1.xsd" xmlns:gpxtpx="http://www.garmin.com/xmlschemas/TrackPointExtension/v1">
  <metadata>
    <link href="http://www.compegps.com">
      <text>CompeGPS TEAM, SL</text>
    </link>
    <time>2014-02-07T18:39:58Z</time>
    <bounds maxlat="43.415161" maxlon="1.475787" minlat="43.400715" minlon="1.448579"/>
  </metadata>
<wpt lat="43.404413" lon="1.448709">
<ele>184</ele>
<name>Grepiac</name>
</wpt>
<wpt lat="43.409930" lon="1.463394">
<ele>237</ele>
<name>Le Pech</name>
</wpt>
<wpt lat="43.406663" lon="1.471886">
<ele>244</ele>
<name>Labruyere-Dorsa</name>
</wpt>
<wpt lat="43.403105" lon="1.468452">
<ele>240</ele>
<name>Rivel</name>
</wpt>
<trk>
    <name>Grepiac-Labruyere</name>
    <trkseg>
      <trkpt lat="43.404413" lon="1.448709">
        <ele>180.8</ele>
        <time>2014-02-07T14:19:38Z</time>
        <name>Grepiac</name>
      </trkpt>
      <trkpt lat="43.404479" lon="1.448669">
        <ele>181.0</ele>
        <time>2014-02-07T14:20:27Z</time>
      </trkpt>
      <trkpt lat="43.404562" lon="1.448579">
        <ele>180.9</ele>
        <time>2014-02-07T14:20:42Z</time>
      </trkpt>
      <trkpt lat="43.404585" lon="1.448637">
        <ele>181.0</ele>
        <time>2014-02-07T14:20:59Z</time>
      </trkpt>
      <trkpt lat="43.404550" lon="1.448794">
        <ele>181.0</ele>
        <time>2014-02-07T14:21:10Z</time>
      </trkpt>
      <trkpt lat="43.404517" lon="1.448941">
        <ele>180.7</ele>
        <time>2014-02-07T14:21:22Z</time>
      </trkpt>
      <trkpt lat="43.404471" lon="1.449083">
        <ele>180.6</ele>
        <time>2014-02-07T14:21:32Z</time>
      </trkpt>
      <trkpt lat="43.404420" lon="1.449216">
        <ele>180.8</ele>
        <time>2014-02-07T14:21:45Z</time>
      </trkpt>
      <trkpt lat="43.404359" lon="1.449367">
        <ele>181.1</ele>
        <time>2014-02-07T14:21:57Z</time>
      </trkpt>
      <trkpt lat="43.404307" lon="1.449496">
        <ele>181.0</ele>
        <time>2014-02-07T14:22:06Z</time>
      </trkpt>
      <trkpt lat="43.404252" lon="1.449632">
        <ele>181.0</ele>
        <time>2014-02-07T14:22:16Z</time>
      </trkpt>
      <trkpt lat="43.404206" lon="1.449780">
        <ele>181.2</ele>
        <time>2014-02-07T14:22:27Z</time>
      </trkpt>
      <trkpt lat="43.404191" lon="1.449958">
        <ele>181.3</ele>
        <time>2014-02-07T14:22:38Z</time>
      </trkpt>
      <trkpt lat="43.404178" lon="1.450126">
        <ele>181.6</ele>
        <time>2014-02-07T14:22:48Z</time>
      </trkpt>
      <trkpt lat="43.404135" lon="1.450265">
        <ele>181.8</ele>
        <time>2014-02-07T14:22:56Z</time>
      </trkpt>
      <trkpt lat="43.404058" lon="1.450370">
        <ele>181.5</ele>
        <time>2014-02-07T14:23:06Z</time>
      </trkpt>
      <trkpt lat="43.404023" lon="1.450525">
        <ele>181.5</ele>
        <time>2014-02-07T14:23:16Z</time>
      </trkpt>
      <trkpt lat="43.403954" lon="1.450653">
        <ele>182.2</ele>
        <time>2014-02-07T14:23:33Z</time>
      </trkpt>
      <trkpt lat="43.403954" lon="1.450719">
        <ele>181.9</ele>
        <time>2014-02-07T14:23:52Z</time>
      </trkpt>
      <trkpt lat="43.403927" lon="1.450798">
        <ele>181.8</ele>
        <time>2014-02-07T14:24:19Z</time>
      </trkpt>
      <trkpt lat="43.403845" lon="1.450991">
        <ele>181.8</ele>
        <time>2014-02-07T14:24:32Z</time>
      </trkpt>
      <trkpt lat="43.403782" lon="1.451131">
        <ele>182.0</ele>
        <time>2014-02-07T14:24:42Z</time>
      </trkpt>
      <trkpt lat="43.403731" lon="1.451260">
        <ele>181.9</ele>
        <time>2014-02-07T14:24:52Z</time>
      </trkpt>
      <trkpt lat="43.403690" lon="1.451384">
        <ele>181.9</ele>
        <time>2014-02-07T14:25:02Z</time>
      </trkpt>
      <trkpt lat="43.403641" lon="1.451494">
        <ele>182.3</ele>
        <time>2014-02-07T14:25:10Z</time>
      </trkpt>
      <trkpt lat="43.403584" lon="1.451599">
        <ele>182.5</ele>
        <time>2014-02-07T14:25:19Z</time>
      </trkpt>
      <trkpt lat="43.403532" lon="1.451721">
        <ele>182.3</ele>
        <time>2014-02-07T14:25:27Z</time>
      </trkpt>
      <trkpt lat="43.403492" lon="1.451838">
        <ele>182.2</ele>
        <time>2014-02-07T14:25:35Z</time>
      </trkpt>
      <trkpt lat="43.403461" lon="1.451973">
        <ele>182.3</ele>
        <time>2014-02-07T14:25:43Z</time>
      </trkpt>
      <trkpt lat="43.403398" lon="1.452058">
        <ele>182.2</ele>
        <time>2014-02-07T14:25:50Z</time>
      </trkpt>
      <trkpt lat="43.403354" lon="1.452171">
        <ele>182.5</ele>
        <time>2014-02-07T14:25:57Z</time>
      </trkpt>
      <trkpt lat="43.403308" lon="1.452278">
        <ele>182.7</ele>
        <time>2014-02-07T14:26:03Z</time>
      </trkpt>
      <trkpt lat="43.403262" lon="1.452390">
        <ele>182.6</ele>
        <time>2014-02-07T14:26:10Z</time>
      </trkpt>
      <trkpt lat="43.403213" lon="1.452512">
        <ele>182.5</ele>
        <time>2014-02-07T14:26:18Z</time>
      </trkpt>
      <trkpt lat="43.403155" lon="1.452639">
        <ele>182.8</ele>
        <time>2014-02-07T14:26:26Z</time>
      </trkpt>
      <trkpt lat="43.403112" lon="1.452759">
        <ele>182.9</ele>
        <time>2014-02-07T14:26:33Z</time>
      </trkpt>
      <trkpt lat="43.403074" lon="1.452875">
        <ele>183.0</ele>
        <time>2014-02-07T14:26:40Z</time>
      </trkpt>
      <trkpt lat="43.403029" lon="1.452988">
        <ele>183.0</ele>
        <time>2014-02-07T14:26:47Z</time>
      </trkpt>
      <trkpt lat="43.402990" lon="1.453095">
        <ele>183.3</ele>
        <time>2014-02-07T14:26:55Z</time>
      </trkpt>
      <trkpt lat="43.402940" lon="1.453208">
        <ele>183.5</ele>
        <time>2014-02-07T14:27:03Z</time>
      </trkpt>
      <trkpt lat="43.402897" lon="1.453317">
        <ele>183.5</ele>
        <time>2014-02-07T14:27:10Z</time>
      </trkpt>
      <trkpt lat="43.402847" lon="1.453438">
        <ele>183.6</ele>
        <time>2014-02-07T14:27:18Z</time>
      </trkpt>
      <trkpt lat="43.402797" lon="1.453544">
        <ele>183.6</ele>
        <time>2014-02-07T14:27:25Z</time>
      </trkpt>
      <trkpt lat="43.402743" lon="1.453650">
        <ele>183.6</ele>
        <time>2014-02-07T14:27:32Z</time>
      </trkpt>
      <trkpt lat="43.402689" lon="1.453755">
        <ele>183.7</ele>
        <time>2014-02-07T14:27:39Z</time>
      </trkpt>
      <trkpt lat="43.402617" lon="1.453848">
        <ele>184.1</ele>
        <time>2014-02-07T14:27:47Z</time>
      </trkpt>
      <trkpt lat="43.402553" lon="1.453951">
        <ele>184.1</ele>
        <time>2014-02-07T14:27:55Z</time>
      </trkpt>
      <trkpt lat="43.402478" lon="1.454064">
        <ele>184.2</ele>
        <time>2014-02-07T14:28:04Z</time>
      </trkpt>
      <trkpt lat="43.402421" lon="1.454167">
        <ele>184.4</ele>
        <time>2014-02-07T14:28:11Z</time>
      </trkpt>
      <trkpt lat="43.402364" lon="1.454266">
        <ele>184.5</ele>
        <time>2014-02-07T14:28:19Z</time>
      </trkpt>
      <trkpt lat="43.402306" lon="1.454363">
        <ele>184.5</ele>
        <time>2014-02-07T14:28:32Z</time>
      </trkpt>
      <trkpt lat="43.402244" lon="1.454456">
        <ele>184.8</ele>
        <time>2014-02-07T14:28:40Z</time>
      </trkpt>
      <trkpt lat="43.402176" lon="1.454548">
        <ele>184.9</ele>
        <time>2014-02-07T14:28:49Z</time>
      </trkpt>
      <trkpt lat="43.402114" lon="1.454634">
        <ele>185.1</ele>
        <time>2014-02-07T14:28:57Z</time>
      </trkpt>
      <trkpt lat="43.402037" lon="1.454724">
        <ele>185.2</ele>
        <time>2014-02-07T14:29:06Z</time>
      </trkpt>
      <trkpt lat="43.401953" lon="1.454811">
        <ele>185.3</ele>
        <time>2014-02-07T14:29:15Z</time>
      </trkpt>
      <trkpt lat="43.401883" lon="1.454889">
        <ele>185.6</ele>
        <time>2014-02-07T14:29:24Z</time>
      </trkpt>
      <trkpt lat="43.401800" lon="1.454958">
        <ele>185.6</ele>
        <time>2014-02-07T14:29:33Z</time>
      </trkpt>
      <trkpt lat="43.401715" lon="1.455022">
        <ele>185.3</ele>
        <time>2014-02-07T14:29:42Z</time>
      </trkpt>
      <trkpt lat="43.401647" lon="1.455082">
        <ele>185.6</ele>
        <time>2014-02-07T14:29:50Z</time>
      </trkpt>
      <trkpt lat="43.401564" lon="1.455150">
        <ele>185.8</ele>
        <time>2014-02-07T14:29:59Z</time>
      </trkpt>
      <trkpt lat="43.401477" lon="1.455240">
        <ele>185.9</ele>
        <time>2014-02-07T14:30:08Z</time>
      </trkpt>
      <trkpt lat="43.401401" lon="1.455354">
        <ele>186.1</ele>
        <time>2014-02-07T14:30:18Z</time>
      </trkpt>
      <trkpt lat="43.401377" lon="1.455480">
        <ele>186.4</ele>
        <time>2014-02-07T14:30:27Z</time>
      </trkpt>
      <trkpt lat="43.401325" lon="1.455604">
        <ele>186.2</ele>
        <time>2014-02-07T14:30:35Z</time>
      </trkpt>
      <trkpt lat="43.401280" lon="1.455720">
        <ele>186.4</ele>
        <time>2014-02-07T14:30:43Z</time>
      </trkpt>
      <trkpt lat="43.401203" lon="1.455781">
        <ele>186.6</ele>
        <time>2014-02-07T14:30:54Z</time>
      </trkpt>
      <trkpt lat="43.401154" lon="1.455885">
        <ele>186.6</ele>
        <time>2014-02-07T14:31:02Z</time>
      </trkpt>
      <trkpt lat="43.401130" lon="1.456031">
        <ele>186.7</ele>
        <time>2014-02-07T14:31:11Z</time>
      </trkpt>
      <trkpt lat="43.401092" lon="1.456151">
        <ele>187.0</ele>
        <time>2014-02-07T14:31:20Z</time>
      </trkpt>
      <trkpt lat="43.401074" lon="1.456282">
        <ele>187.4</ele>
        <time>2014-02-07T14:31:30Z</time>
      </trkpt>
      <trkpt lat="43.401048" lon="1.456414">
        <ele>188.1</ele>
        <time>2014-02-07T14:31:39Z</time>
      </trkpt>
      <trkpt lat="43.401006" lon="1.456530">
        <ele>188.4</ele>
        <time>2014-02-07T14:31:47Z</time>
      </trkpt>
      <trkpt lat="43.400999" lon="1.456660">
        <ele>188.2</ele>
        <time>2014-02-07T14:31:56Z</time>
      </trkpt>
      <trkpt lat="43.400991" lon="1.456759">
        <ele>188.6</ele>
        <time>2014-02-07T14:32:49Z</time>
      </trkpt>
      <trkpt lat="43.400962" lon="1.456892">
        <ele>188.5</ele>
        <time>2014-02-07T14:32:57Z</time>
      </trkpt>
      <trkpt lat="43.400936" lon="1.457020">
        <ele>188.8</ele>
        <time>2014-02-07T14:33:05Z</time>
      </trkpt>
      <trkpt lat="43.400898" lon="1.457141">
        <ele>189.1</ele>
        <time>2014-02-07T14:33:13Z</time>
      </trkpt>
      <trkpt lat="43.400878" lon="1.457269">
        <ele>189.2</ele>
        <time>2014-02-07T14:33:20Z</time>
      </trkpt>
      <trkpt lat="43.400850" lon="1.457382">
        <ele>189.4</ele>
        <time>2014-02-07T14:33:27Z</time>
      </trkpt>
      <trkpt lat="43.400854" lon="1.457502">
        <ele>189.5</ele>
        <time>2014-02-07T14:33:35Z</time>
      </trkpt>
      <trkpt lat="43.400840" lon="1.457645">
        <ele>189.5</ele>
        <time>2014-02-07T14:33:43Z</time>
      </trkpt>
      <trkpt lat="43.400827" lon="1.457776">
        <ele>189.9</ele>
        <time>2014-02-07T14:33:50Z</time>
      </trkpt>
      <trkpt lat="43.400805" lon="1.457903">
        <ele>190.4</ele>
        <time>2014-02-07T14:33:57Z</time>
      </trkpt>
      <trkpt lat="43.400788" lon="1.458025">
        <ele>190.6</ele>
        <time>2014-02-07T14:34:04Z</time>
      </trkpt>
      <trkpt lat="43.400762" lon="1.458156">
        <ele>190.8</ele>
        <time>2014-02-07T14:34:11Z</time>
      </trkpt>
      <trkpt lat="43.400750" lon="1.458285">
        <ele>190.9</ele>
        <time>2014-02-07T14:34:19Z</time>
      </trkpt>
      <trkpt lat="43.400730" lon="1.458419">
        <ele>191.1</ele>
        <time>2014-02-07T14:34:27Z</time>
      </trkpt>
      <trkpt lat="43.400722" lon="1.458555">
        <ele>191.6</ele>
        <time>2014-02-07T14:34:35Z</time>
      </trkpt>
      <trkpt lat="43.400730" lon="1.458691">
        <ele>192.1</ele>
        <time>2014-02-07T14:34:43Z</time>
      </trkpt>
      <trkpt lat="43.400723" lon="1.458839">
        <ele>192.4</ele>
        <time>2014-02-07T14:34:52Z</time>
      </trkpt>
      <trkpt lat="43.400715" lon="1.458981">
        <ele>192.8</ele>
        <time>2014-02-07T14:35:00Z</time>
      </trkpt>
      <trkpt lat="43.400735" lon="1.459117">
        <ele>192.9</ele>
        <time>2014-02-07T14:35:09Z</time>
      </trkpt>
      <trkpt lat="43.400720" lon="1.459248">
        <ele>193.4</ele>
        <time>2014-02-07T14:37:21Z</time>
      </trkpt>
      <trkpt lat="43.400743" lon="1.459386">
        <ele>193.5</ele>
        <time>2014-02-07T14:37:29Z</time>
      </trkpt>
      <trkpt lat="43.400743" lon="1.459529">
        <ele>193.6</ele>
        <time>2014-02-07T14:37:38Z</time>
      </trkpt>
      <trkpt lat="43.400746" lon="1.459663">
        <ele>193.9</ele>
        <time>2014-02-07T14:37:46Z</time>
      </trkpt>
      <trkpt lat="43.400816" lon="1.459743">
        <ele>193.9</ele>
        <time>2014-02-07T14:37:56Z</time>
      </trkpt>
      <trkpt lat="43.400902" lon="1.459777">
        <ele>194.1</ele>
        <time>2014-02-07T14:38:05Z</time>
      </trkpt>
      <trkpt lat="43.400993" lon="1.459824">
        <ele>194.3</ele>
        <time>2014-02-07T14:38:15Z</time>
      </trkpt>
      <trkpt lat="43.401107" lon="1.459849">
        <ele>194.7</ele>
        <time>2014-02-07T14:38:25Z</time>
      </trkpt>
      <trkpt lat="43.401195" lon="1.459872">
        <ele>195.0</ele>
        <time>2014-02-07T14:38:34Z</time>
      </trkpt>
      <trkpt lat="43.401281" lon="1.459894">
        <ele>195.3</ele>
        <time>2014-02-07T14:38:42Z</time>
      </trkpt>
      <trkpt lat="43.401378" lon="1.459933">
        <ele>195.6</ele>
        <time>2014-02-07T14:38:50Z</time>
      </trkpt>
      <trkpt lat="43.401470" lon="1.459964">
        <ele>196.0</ele>
        <time>2014-02-07T14:38:58Z</time>
      </trkpt>
      <trkpt lat="43.401557" lon="1.459992">
        <ele>196.4</ele>
        <time>2014-02-07T14:39:05Z</time>
      </trkpt>
      <trkpt lat="43.401651" lon="1.460026">
        <ele>196.8</ele>
        <time>2014-02-07T14:39:14Z</time>
      </trkpt>
      <trkpt lat="43.401756" lon="1.460058">
        <ele>197.4</ele>
        <time>2014-02-07T14:39:23Z</time>
      </trkpt>
      <trkpt lat="43.401859" lon="1.460081">
        <ele>197.9</ele>
        <time>2014-02-07T14:39:31Z</time>
      </trkpt>
      <trkpt lat="43.401961" lon="1.460105">
        <ele>198.5</ele>
        <time>2014-02-07T14:39:39Z</time>
      </trkpt>
      <trkpt lat="43.402055" lon="1.460128">
        <ele>199.0</ele>
        <time>2014-02-07T14:39:47Z</time>
      </trkpt>
      <trkpt lat="43.402147" lon="1.460161">
        <ele>199.6</ele>
        <time>2014-02-07T14:39:56Z</time>
      </trkpt>
      <trkpt lat="43.402252" lon="1.460198">
        <ele>200.3</ele>
        <time>2014-02-07T14:40:05Z</time>
      </trkpt>
      <trkpt lat="43.402354" lon="1.460221">
        <ele>201.0</ele>
        <time>2014-02-07T14:40:15Z</time>
      </trkpt>
      <trkpt lat="43.402451" lon="1.460252">
        <ele>201.8</ele>
        <time>2014-02-07T14:40:24Z</time>
      </trkpt>
      <trkpt lat="43.402563" lon="1.460276">
        <ele>202.6</ele>
        <time>2014-02-07T14:40:33Z</time>
      </trkpt>
      <trkpt lat="43.402666" lon="1.460301">
        <ele>203.4</ele>
        <time>2014-02-07T14:40:43Z</time>
      </trkpt>
      <trkpt lat="43.402764" lon="1.460286">
        <ele>204.8</ele>
        <time>2014-02-07T14:40:54Z</time>
      </trkpt>
      <trkpt lat="43.402849" lon="1.460309">
        <ele>205.8</ele>
        <time>2014-02-07T14:41:03Z</time>
      </trkpt>
      <trkpt lat="43.402943" lon="1.460358">
        <ele>207.4</ele>
        <time>2014-02-07T14:41:14Z</time>
      </trkpt>
      <trkpt lat="43.403031" lon="1.460402">
        <ele>208.6</ele>
        <time>2014-02-07T14:41:23Z</time>
      </trkpt>
      <trkpt lat="43.403129" lon="1.460411">
        <ele>210.4</ele>
        <time>2014-02-07T14:41:35Z</time>
      </trkpt>
      <trkpt lat="43.403230" lon="1.460428">
        <ele>211.8</ele>
        <time>2014-02-07T14:41:46Z</time>
      </trkpt>
      <trkpt lat="43.403317" lon="1.460452">
        <ele>213.1</ele>
        <time>2014-02-07T14:41:56Z</time>
      </trkpt>
      <trkpt lat="43.403410" lon="1.460507">
        <ele>214.9</ele>
        <time>2014-02-07T14:42:08Z</time>
      </trkpt>
      <trkpt lat="43.403522" lon="1.460532">
        <ele>216.2</ele>
        <time>2014-02-07T14:42:20Z</time>
      </trkpt>
      <trkpt lat="43.403633" lon="1.460558">
        <ele>218.0</ele>
        <time>2014-02-07T14:42:32Z</time>
      </trkpt>
      <trkpt lat="43.403722" lon="1.460545">
        <ele>219.8</ele>
        <time>2014-02-07T14:42:46Z</time>
      </trkpt>
      <trkpt lat="43.403817" lon="1.460576">
        <ele>220.8</ele>
        <time>2014-02-07T14:42:56Z</time>
      </trkpt>
      <trkpt lat="43.403917" lon="1.460597">
        <ele>221.7</ele>
        <time>2014-02-07T14:43:06Z</time>
      </trkpt>
      <trkpt lat="43.404012" lon="1.460610">
        <ele>222.8</ele>
        <time>2014-02-07T14:43:17Z</time>
      </trkpt>
      <trkpt lat="43.404115" lon="1.460648">
        <ele>224.4</ele>
        <time>2014-02-07T14:43:28Z</time>
      </trkpt>
      <trkpt lat="43.404217" lon="1.460675">
        <ele>225.2</ele>
        <time>2014-02-07T14:43:37Z</time>
      </trkpt>
      <trkpt lat="43.404312" lon="1.460704">
        <ele>226.2</ele>
        <time>2014-02-07T14:43:47Z</time>
      </trkpt>
      <trkpt lat="43.404374" lon="1.460729">
        <ele>218.9</ele>
        <time>2014-02-07T14:48:43Z</time>
      </trkpt>
      <trkpt lat="43.404412" lon="1.460848">
        <ele>219.5</ele>
        <time>2014-02-07T14:49:01Z</time>
      </trkpt>
      <trkpt lat="43.404488" lon="1.460950">
        <ele>219.1</ele>
        <time>2014-02-07T14:49:11Z</time>
      </trkpt>
      <trkpt lat="43.404560" lon="1.461030">
        <ele>218.8</ele>
        <time>2014-02-07T14:49:22Z</time>
      </trkpt>
      <trkpt lat="43.404644" lon="1.461082">
        <ele>217.9</ele>
        <time>2014-02-07T14:49:32Z</time>
      </trkpt>
      <trkpt lat="43.404740" lon="1.461123">
        <ele>216.7</ele>
        <time>2014-02-07T14:49:43Z</time>
      </trkpt>
      <trkpt lat="43.404821" lon="1.461173">
        <ele>215.3</ele>
        <time>2014-02-07T14:49:53Z</time>
      </trkpt>
      <trkpt lat="43.404914" lon="1.461222">
        <ele>213.8</ele>
        <time>2014-02-07T14:50:03Z</time>
      </trkpt>
      <trkpt lat="43.405003" lon="1.461247">
        <ele>212.2</ele>
        <time>2014-02-07T14:50:12Z</time>
      </trkpt>
      <trkpt lat="43.405092" lon="1.461274">
        <ele>210.5</ele>
        <time>2014-02-07T14:50:22Z</time>
      </trkpt>
      <trkpt lat="43.405191" lon="1.461315">
        <ele>209.1</ele>
        <time>2014-02-07T14:50:32Z</time>
      </trkpt>
      <trkpt lat="43.405282" lon="1.461350">
        <ele>208.0</ele>
        <time>2014-02-07T14:50:41Z</time>
      </trkpt>
      <trkpt lat="43.405375" lon="1.461388">
        <ele>206.7</ele>
        <time>2014-02-07T14:50:50Z</time>
      </trkpt>
      <trkpt lat="43.405473" lon="1.461415">
        <ele>205.7</ele>
        <time>2014-02-07T14:51:01Z</time>
      </trkpt>
      <trkpt lat="43.405577" lon="1.461448">
        <ele>205.2</ele>
        <time>2014-02-07T14:51:10Z</time>
      </trkpt>
      <trkpt lat="43.405669" lon="1.461481">
        <ele>204.6</ele>
        <time>2014-02-07T14:51:19Z</time>
      </trkpt>
      <trkpt lat="43.405759" lon="1.461521">
        <ele>203.9</ele>
        <time>2014-02-07T14:51:28Z</time>
      </trkpt>
      <trkpt lat="43.405860" lon="1.461559">
        <ele>203.0</ele>
        <time>2014-02-07T14:51:37Z</time>
      </trkpt>
      <trkpt lat="43.405956" lon="1.461595">
        <ele>202.4</ele>
        <time>2014-02-07T14:51:46Z</time>
      </trkpt>
      <trkpt lat="43.406055" lon="1.461630">
        <ele>201.9</ele>
        <time>2014-02-07T14:51:55Z</time>
      </trkpt>
      <trkpt lat="43.406150" lon="1.461671">
        <ele>201.8</ele>
        <time>2014-02-07T14:52:04Z</time>
      </trkpt>
      <trkpt lat="43.406246" lon="1.461693">
        <ele>201.6</ele>
        <time>2014-02-07T14:52:13Z</time>
      </trkpt>
      <trkpt lat="43.406341" lon="1.461722">
        <ele>201.3</ele>
        <time>2014-02-07T14:52:21Z</time>
      </trkpt>
      <trkpt lat="43.406437" lon="1.461760">
        <ele>200.8</ele>
        <time>2014-02-07T14:52:35Z</time>
      </trkpt>
      <trkpt lat="43.406537" lon="1.461772">
        <ele>201.0</ele>
        <time>2014-02-07T14:52:45Z</time>
      </trkpt>
      <trkpt lat="43.406627" lon="1.461825">
        <ele>201.0</ele>
        <time>2014-02-07T14:52:57Z</time>
      </trkpt>
      <trkpt lat="43.406714" lon="1.461870">
        <ele>201.1</ele>
        <time>2014-02-07T14:53:10Z</time>
      </trkpt>
      <trkpt lat="43.406818" lon="1.461913">
        <ele>201.6</ele>
        <time>2014-02-07T14:53:20Z</time>
      </trkpt>
      <trkpt lat="43.406915" lon="1.461952">
        <ele>202.0</ele>
        <time>2014-02-07T14:53:29Z</time>
      </trkpt>
      <trkpt lat="43.407000" lon="1.461994">
        <ele>202.7</ele>
        <time>2014-02-07T14:53:39Z</time>
      </trkpt>
      <trkpt lat="43.407099" lon="1.462027">
        <ele>203.1</ele>
        <time>2014-02-07T14:53:50Z</time>
      </trkpt>
      <trkpt lat="43.407198" lon="1.462068">
        <ele>203.1</ele>
        <time>2014-02-07T14:54:01Z</time>
      </trkpt>
      <trkpt lat="43.407288" lon="1.462119">
        <ele>204.0</ele>
        <time>2014-02-07T14:54:11Z</time>
      </trkpt>
      <trkpt lat="43.407385" lon="1.462163">
        <ele>204.8</ele>
        <time>2014-02-07T14:54:20Z</time>
      </trkpt>
      <trkpt lat="43.407482" lon="1.462207">
        <ele>205.5</ele>
        <time>2014-02-07T14:54:29Z</time>
      </trkpt>
      <trkpt lat="43.407574" lon="1.462248">
        <ele>205.5</ele>
        <time>2014-02-07T14:54:38Z</time>
      </trkpt>
      <trkpt lat="43.407665" lon="1.462286">
        <ele>205.9</ele>
        <time>2014-02-07T14:54:47Z</time>
      </trkpt>
      <trkpt lat="43.407768" lon="1.462336">
        <ele>206.6</ele>
        <time>2014-02-07T14:54:57Z</time>
      </trkpt>
      <trkpt lat="43.407867" lon="1.462371">
        <ele>207.4</ele>
        <time>2014-02-07T14:55:06Z</time>
      </trkpt>
      <trkpt lat="43.407956" lon="1.462402">
        <ele>207.9</ele>
        <time>2014-02-07T14:55:14Z</time>
      </trkpt>
      <trkpt lat="43.408023" lon="1.462456">
        <ele>208.7</ele>
        <time>2014-02-07T14:55:25Z</time>
      </trkpt>
      <trkpt lat="43.408116" lon="1.462481">
        <ele>208.9</ele>
        <time>2014-02-07T14:55:39Z</time>
      </trkpt>
      <trkpt lat="43.408216" lon="1.462519">
        <ele>209.5</ele>
        <time>2014-02-07T14:55:49Z</time>
      </trkpt>
      <trkpt lat="43.408319" lon="1.462556">
        <ele>210.9</ele>
        <time>2014-02-07T14:55:59Z</time>
      </trkpt>
      <trkpt lat="43.408413" lon="1.462590">
        <ele>212.0</ele>
        <time>2014-02-07T14:56:09Z</time>
      </trkpt>
      <trkpt lat="43.408506" lon="1.462641">
        <ele>213.0</ele>
        <time>2014-02-07T14:56:18Z</time>
      </trkpt>
      <trkpt lat="43.408595" lon="1.462674">
        <ele>213.9</ele>
        <time>2014-02-07T14:56:27Z</time>
      </trkpt>
      <trkpt lat="43.408689" lon="1.462703">
        <ele>214.8</ele>
        <time>2014-02-07T14:56:37Z</time>
      </trkpt>
      <trkpt lat="43.408782" lon="1.462721">
        <ele>215.5</ele>
        <time>2014-02-07T14:56:47Z</time>
      </trkpt>
      <trkpt lat="43.408866" lon="1.462771">
        <ele>216.6</ele>
        <time>2014-02-07T14:56:58Z</time>
      </trkpt>
      <trkpt lat="43.408959" lon="1.462814">
        <ele>218.0</ele>
        <time>2014-02-07T14:57:09Z</time>
      </trkpt>
      <trkpt lat="43.409054" lon="1.462863">
        <ele>219.6</ele>
        <time>2014-02-07T14:57:20Z</time>
      </trkpt>
      <trkpt lat="43.409158" lon="1.462888">
        <ele>220.7</ele>
        <time>2014-02-07T14:57:30Z</time>
      </trkpt>
      <trkpt lat="43.409258" lon="1.462925">
        <ele>221.9</ele>
        <time>2014-02-07T14:57:39Z</time>
      </trkpt>
      <trkpt lat="43.409351" lon="1.462979">
        <ele>223.2</ele>
        <time>2014-02-07T14:57:49Z</time>
      </trkpt>
      <trkpt lat="43.409455" lon="1.463040">
        <ele>224.9</ele>
        <time>2014-02-07T14:58:01Z</time>
      </trkpt>
      <trkpt lat="43.409539" lon="1.463118">
        <ele>225.8</ele>
        <time>2014-02-07T14:58:11Z</time>
      </trkpt>
      <trkpt lat="43.409623" lon="1.463190">
        <ele>226.5</ele>
        <time>2014-02-07T14:58:21Z</time>
      </trkpt>
      <trkpt lat="43.409720" lon="1.463243">
        <ele>227.3</ele>
        <time>2014-02-07T14:58:31Z</time>
      </trkpt>
      <trkpt lat="43.409829" lon="1.463312">
        <ele>227.6</ele>
        <time>2014-02-07T14:58:42Z</time>
      </trkpt>
      <trkpt lat="43.409930" lon="1.463394">
        <ele>227.7</ele>
        <time>2014-02-07T14:58:56Z</time>
        <name>Le Pech</name>
      </trkpt>
      <trkpt lat="43.410048" lon="1.463492">
        <ele>227.5</ele>
        <time>2014-02-07T14:59:12Z</time>
      </trkpt>
      <trkpt lat="43.410160" lon="1.463565">
        <ele>227.3</ele>
        <time>2014-02-07T14:59:30Z</time>
      </trkpt>
      <trkpt lat="43.410267" lon="1.463599">
        <ele>226.7</ele>
        <time>2014-02-07T14:59:48Z</time>
      </trkpt>
      <trkpt lat="43.410359" lon="1.463676">
        <ele>224.7</ele>
        <time>2014-02-07T15:00:09Z</time>
      </trkpt>
      <trkpt lat="43.410440" lon="1.463778">
        <ele>223.6</ele>
        <time>2014-02-07T15:00:21Z</time>
      </trkpt>
      <trkpt lat="43.410537" lon="1.463869">
        <ele>222.0</ele>
        <time>2014-02-07T15:00:34Z</time>
      </trkpt>
      <trkpt lat="43.410630" lon="1.463971">
        <ele>220.4</ele>
        <time>2014-02-07T15:00:47Z</time>
      </trkpt>
      <trkpt lat="43.410683" lon="1.464122">
        <ele>218.3</ele>
        <time>2014-02-07T15:01:03Z</time>
      </trkpt>
      <trkpt lat="43.410732" lon="1.464295">
        <ele>215.5</ele>
        <time>2014-02-07T15:01:40Z</time>
      </trkpt>
      <trkpt lat="43.410739" lon="1.464414">
        <ele>215.4</ele>
        <time>2014-02-07T15:02:42Z</time>
      </trkpt>
      <trkpt lat="43.410750" lon="1.464534">
        <ele>214.3</ele>
        <time>2014-02-07T15:02:59Z</time>
      </trkpt>
      <trkpt lat="43.410796" lon="1.464669">
        <ele>212.1</ele>
        <time>2014-02-07T15:03:15Z</time>
      </trkpt>
      <trkpt lat="43.410828" lon="1.464861">
        <ele>210.5</ele>
        <time>2014-02-07T15:03:30Z</time>
      </trkpt>
      <trkpt lat="43.410859" lon="1.465026">
        <ele>208.6</ele>
        <time>2014-02-07T15:03:48Z</time>
      </trkpt>
      <trkpt lat="43.410884" lon="1.465193">
        <ele>207.5</ele>
        <time>2014-02-07T15:04:02Z</time>
      </trkpt>
      <trkpt lat="43.410905" lon="1.465334">
        <ele>206.6</ele>
        <time>2014-02-07T15:04:13Z</time>
      </trkpt>
      <trkpt lat="43.410924" lon="1.465481">
        <ele>205.4</ele>
        <time>2014-02-07T15:04:25Z</time>
      </trkpt>
      <trkpt lat="43.410948" lon="1.465655">
        <ele>203.8</ele>
        <time>2014-02-07T15:04:38Z</time>
      </trkpt>
      <trkpt lat="43.410941" lon="1.465852">
        <ele>202.6</ele>
        <time>2014-02-07T15:04:52Z</time>
      </trkpt>
      <trkpt lat="43.410917" lon="1.466063">
        <ele>201.9</ele>
        <time>2014-02-07T15:05:05Z</time>
      </trkpt>
      <trkpt lat="43.410908" lon="1.466288">
        <ele>200.7</ele>
        <time>2014-02-07T15:05:18Z</time>
      </trkpt>
      <trkpt lat="43.410935" lon="1.466443">
        <ele>199.1</ele>
        <time>2014-02-07T15:05:30Z</time>
      </trkpt>
      <trkpt lat="43.411034" lon="1.466558">
        <ele>196.9</ele>
        <time>2014-02-07T15:05:46Z</time>
      </trkpt>
      <trkpt lat="43.411123" lon="1.466706">
        <ele>195.7</ele>
        <time>2014-02-07T15:06:00Z</time>
      </trkpt>
      <trkpt lat="43.411225" lon="1.466826">
        <ele>194.5</ele>
        <time>2014-02-07T15:06:13Z</time>
      </trkpt>
      <trkpt lat="43.411338" lon="1.466955">
        <ele>193.7</ele>
        <time>2014-02-07T15:06:26Z</time>
      </trkpt>
      <trkpt lat="43.411383" lon="1.467106">
        <ele>193.2</ele>
        <time>2014-02-07T15:06:38Z</time>
      </trkpt>
      <trkpt lat="43.411424" lon="1.467266">
        <ele>192.4</ele>
        <time>2014-02-07T15:06:51Z</time>
      </trkpt>
      <trkpt lat="43.411468" lon="1.467442">
        <ele>191.9</ele>
        <time>2014-02-07T15:07:03Z</time>
      </trkpt>
      <trkpt lat="43.411555" lon="1.467558">
        <ele>191.6</ele>
        <time>2014-02-07T15:07:14Z</time>
      </trkpt>
      <trkpt lat="43.411598" lon="1.467671">
        <ele>191.3</ele>
        <time>2014-02-07T15:07:23Z</time>
      </trkpt>
      <trkpt lat="43.411644" lon="1.467802">
        <ele>190.9</ele>
        <time>2014-02-07T15:07:33Z</time>
      </trkpt>
      <trkpt lat="43.411711" lon="1.467895">
        <ele>190.1</ele>
        <time>2014-02-07T15:07:42Z</time>
      </trkpt>
      <trkpt lat="43.411763" lon="1.467988">
        <ele>189.5</ele>
        <time>2014-02-07T15:07:51Z</time>
      </trkpt>
      <trkpt lat="43.411833" lon="1.468052">
        <ele>189.1</ele>
        <time>2014-02-07T15:08:01Z</time>
      </trkpt>
      <trkpt lat="43.411901" lon="1.468155">
        <ele>188.8</ele>
        <time>2014-02-07T15:08:11Z</time>
      </trkpt>
      <trkpt lat="43.411970" lon="1.468260">
        <ele>187.9</ele>
        <time>2014-02-07T15:08:22Z</time>
      </trkpt>
      <trkpt lat="43.412020" lon="1.468364">
        <ele>187.1</ele>
        <time>2014-02-07T15:08:38Z</time>
      </trkpt>
      <trkpt lat="43.412107" lon="1.468468">
        <ele>186.7</ele>
        <time>2014-02-07T15:08:50Z</time>
      </trkpt>
      <trkpt lat="43.412185" lon="1.468568">
        <ele>186.4</ele>
        <time>2014-02-07T15:09:03Z</time>
      </trkpt>
      <trkpt lat="43.412269" lon="1.468656">
        <ele>185.6</ele>
        <time>2014-02-07T15:09:15Z</time>
      </trkpt>
      <trkpt lat="43.412354" lon="1.468772">
        <ele>184.7</ele>
        <time>2014-02-07T15:09:27Z</time>
      </trkpt>
      <trkpt lat="43.412421" lon="1.468899">
        <ele>183.4</ele>
        <time>2014-02-07T15:09:38Z</time>
      </trkpt>
      <trkpt lat="43.412499" lon="1.469005">
        <ele>182.5</ele>
        <time>2014-02-07T15:09:48Z</time>
      </trkpt>
      <trkpt lat="43.412579" lon="1.469120">
        <ele>181.9</ele>
        <time>2014-02-07T15:09:58Z</time>
      </trkpt>
      <trkpt lat="43.412673" lon="1.469238">
        <ele>181.7</ele>
        <time>2014-02-07T15:10:07Z</time>
      </trkpt>
      <trkpt lat="43.412730" lon="1.469353">
        <ele>181.4</ele>
        <time>2014-02-07T15:10:16Z</time>
      </trkpt>
      <trkpt lat="43.412740" lon="1.469478">
        <ele>181.3</ele>
        <time>2014-02-07T15:10:25Z</time>
      </trkpt>
      <trkpt lat="43.412710" lon="1.469588">
        <ele>181.0</ele>
        <time>2014-02-07T15:10:41Z</time>
      </trkpt>
      <trkpt lat="43.412690" lon="1.469730">
        <ele>180.4</ele>
        <time>2014-02-07T15:10:59Z</time>
      </trkpt>
      <trkpt lat="43.412676" lon="1.469849">
        <ele>180.0</ele>
        <time>2014-02-07T15:11:09Z</time>
      </trkpt>
      <trkpt lat="43.412657" lon="1.469974">
        <ele>179.8</ele>
        <time>2014-02-07T15:11:18Z</time>
      </trkpt>
      <trkpt lat="43.412632" lon="1.470101">
        <ele>179.3</ele>
        <time>2014-02-07T15:11:27Z</time>
      </trkpt>
      <trkpt lat="43.412612" lon="1.470224">
        <ele>179.1</ele>
        <time>2014-02-07T15:11:36Z</time>
      </trkpt>
      <trkpt lat="43.412596" lon="1.470364">
        <ele>178.9</ele>
        <time>2014-02-07T15:11:45Z</time>
      </trkpt>
      <trkpt lat="43.412572" lon="1.470487">
        <ele>178.6</ele>
        <time>2014-02-07T15:11:54Z</time>
      </trkpt>
      <trkpt lat="43.412551" lon="1.470620">
        <ele>178.6</ele>
        <time>2014-02-07T15:12:03Z</time>
      </trkpt>
      <trkpt lat="43.412534" lon="1.470755">
        <ele>178.5</ele>
        <time>2014-02-07T15:12:12Z</time>
      </trkpt>
      <trkpt lat="43.412521" lon="1.470893">
        <ele>178.4</ele>
        <time>2014-02-07T15:12:21Z</time>
      </trkpt>
      <trkpt lat="43.412504" lon="1.471029">
        <ele>178.3</ele>
        <time>2014-02-07T15:12:30Z</time>
      </trkpt>
      <trkpt lat="43.412482" lon="1.471154">
        <ele>178.1</ele>
        <time>2014-02-07T15:12:39Z</time>
      </trkpt>
      <trkpt lat="43.412461" lon="1.471293">
        <ele>177.9</ele>
        <time>2014-02-07T15:12:48Z</time>
      </trkpt>
      <trkpt lat="43.412442" lon="1.471421">
        <ele>177.9</ele>
        <time>2014-02-07T15:12:57Z</time>
      </trkpt>
      <trkpt lat="43.412425" lon="1.471556">
        <ele>178.0</ele>
        <time>2014-02-07T15:13:05Z</time>
      </trkpt>
      <trkpt lat="43.412416" lon="1.471697">
        <ele>177.9</ele>
        <time>2014-02-07T15:13:14Z</time>
      </trkpt>
      <trkpt lat="43.412478" lon="1.471790">
        <ele>177.4</ele>
        <time>2014-02-07T15:13:23Z</time>
      </trkpt>
      <trkpt lat="43.412563" lon="1.471860">
        <ele>177.0</ele>
        <time>2014-02-07T15:13:33Z</time>
      </trkpt>
      <trkpt lat="43.412656" lon="1.471939">
        <ele>176.8</ele>
        <time>2014-02-07T15:13:43Z</time>
      </trkpt>
      <trkpt lat="43.412735" lon="1.472006">
        <ele>176.4</ele>
        <time>2014-02-07T15:13:51Z</time>
      </trkpt>
      <trkpt lat="43.412818" lon="1.472087">
        <ele>176.1</ele>
        <time>2014-02-07T15:14:00Z</time>
      </trkpt>
      <trkpt lat="43.412898" lon="1.472156">
        <ele>175.5</ele>
        <time>2014-02-07T15:14:09Z</time>
      </trkpt>
      <trkpt lat="43.412982" lon="1.472221">
        <ele>175.6</ele>
        <time>2014-02-07T15:14:19Z</time>
      </trkpt>
      <trkpt lat="43.413068" lon="1.472287">
        <ele>175.6</ele>
        <time>2014-02-07T15:14:28Z</time>
      </trkpt>
      <trkpt lat="43.413153" lon="1.472357">
        <ele>175.5</ele>
        <time>2014-02-07T15:14:38Z</time>
      </trkpt>
      <trkpt lat="43.413237" lon="1.472435">
        <ele>175.3</ele>
        <time>2014-02-07T15:14:48Z</time>
      </trkpt>
      <trkpt lat="43.413319" lon="1.472501">
        <ele>174.9</ele>
        <time>2014-02-07T15:14:57Z</time>
      </trkpt>
      <trkpt lat="43.413398" lon="1.472561">
        <ele>174.8</ele>
        <time>2014-02-07T15:15:07Z</time>
      </trkpt>
      <trkpt lat="43.413475" lon="1.472629">
        <ele>174.4</ele>
        <time>2014-02-07T15:15:16Z</time>
      </trkpt>
      <trkpt lat="43.413557" lon="1.472704">
        <ele>174.7</ele>
        <time>2014-02-07T15:15:25Z</time>
      </trkpt>
      <trkpt lat="43.413639" lon="1.472773">
        <ele>174.7</ele>
        <time>2014-02-07T15:15:34Z</time>
      </trkpt>
      <trkpt lat="43.413719" lon="1.472849">
        <ele>174.7</ele>
        <time>2014-02-07T15:15:43Z</time>
      </trkpt>
      <trkpt lat="43.413808" lon="1.472927">
        <ele>174.5</ele>
        <time>2014-02-07T15:15:52Z</time>
      </trkpt>
      <trkpt lat="43.413883" lon="1.473008">
        <ele>173.9</ele>
        <time>2014-02-07T15:16:01Z</time>
      </trkpt>
      <trkpt lat="43.413954" lon="1.473093">
        <ele>173.6</ele>
        <time>2014-02-07T15:16:10Z</time>
      </trkpt>
      <trkpt lat="43.414026" lon="1.473181">
        <ele>173.5</ele>
        <time>2014-02-07T15:16:19Z</time>
      </trkpt>
      <trkpt lat="43.414098" lon="1.473276">
        <ele>173.4</ele>
        <time>2014-02-07T15:16:29Z</time>
      </trkpt>
      <trkpt lat="43.414170" lon="1.473362">
        <ele>173.3</ele>
        <time>2014-02-07T15:16:39Z</time>
      </trkpt>
      <trkpt lat="43.414225" lon="1.473442">
        <ele>173.4</ele>
        <time>2014-02-07T15:17:21Z</time>
      </trkpt>
      <trkpt lat="43.414300" lon="1.473515">
        <ele>173.2</ele>
        <time>2014-02-07T15:17:31Z</time>
      </trkpt>
      <trkpt lat="43.414370" lon="1.473617">
        <ele>172.9</ele>
        <time>2014-02-07T15:17:41Z</time>
      </trkpt>
      <trkpt lat="43.414442" lon="1.473714">
        <ele>172.8</ele>
        <time>2014-02-07T15:17:50Z</time>
      </trkpt>
      <trkpt lat="43.414513" lon="1.473790">
        <ele>172.6</ele>
        <time>2014-02-07T15:17:59Z</time>
      </trkpt>
      <trkpt lat="43.414586" lon="1.473887">
        <ele>172.7</ele>
        <time>2014-02-07T15:18:08Z</time>
      </trkpt>
      <trkpt lat="43.414658" lon="1.473970">
        <ele>172.6</ele>
        <time>2014-02-07T15:18:16Z</time>
      </trkpt>
      <trkpt lat="43.414727" lon="1.474054">
        <ele>172.5</ele>
        <time>2014-02-07T15:18:24Z</time>
      </trkpt>
      <trkpt lat="43.414805" lon="1.474142">
        <ele>172.3</ele>
        <time>2014-02-07T15:18:33Z</time>
      </trkpt>
      <trkpt lat="43.414879" lon="1.474225">
        <ele>172.2</ele>
        <time>2014-02-07T15:18:41Z</time>
      </trkpt>
      <trkpt lat="43.414950" lon="1.474327">
        <ele>172.2</ele>
        <time>2014-02-07T15:18:50Z</time>
      </trkpt>
      <trkpt lat="43.415025" lon="1.474422">
        <ele>172.1</ele>
        <time>2014-02-07T15:18:59Z</time>
      </trkpt>
      <trkpt lat="43.415095" lon="1.474502">
        <ele>172.0</ele>
        <time>2014-02-07T15:19:07Z</time>
      </trkpt>
      <trkpt lat="43.415161" lon="1.474593">
        <ele>171.8</ele>
        <time>2014-02-07T15:19:16Z</time>
      </trkpt>
      <trkpt lat="43.415064" lon="1.474643">
        <ele>171.8</ele>
        <time>2014-02-07T15:19:25Z</time>
      </trkpt>
      <trkpt lat="43.414977" lon="1.474709">
        <ele>172.0</ele>
        <time>2014-02-07T15:19:34Z</time>
      </trkpt>
      <trkpt lat="43.414890" lon="1.474774">
        <ele>171.9</ele>
        <time>2014-02-07T15:19:43Z</time>
      </trkpt>
      <trkpt lat="43.414804" lon="1.474846">
        <ele>172.0</ele>
        <time>2014-02-07T15:19:52Z</time>
      </trkpt>
      <trkpt lat="43.414724" lon="1.474910">
        <ele>172.1</ele>
        <time>2014-02-07T15:20:00Z</time>
      </trkpt>
      <trkpt lat="43.414646" lon="1.474973">
        <ele>172.2</ele>
        <time>2014-02-07T15:20:09Z</time>
      </trkpt>
      <trkpt lat="43.414557" lon="1.475022">
        <ele>172.4</ele>
        <time>2014-02-07T15:20:18Z</time>
      </trkpt>
      <trkpt lat="43.414459" lon="1.475057">
        <ele>172.4</ele>
        <time>2014-02-07T15:20:27Z</time>
      </trkpt>
      <trkpt lat="43.414365" lon="1.475087">
        <ele>172.4</ele>
        <time>2014-02-07T15:20:36Z</time>
      </trkpt>
      <trkpt lat="43.414274" lon="1.475117">
        <ele>172.4</ele>
        <time>2014-02-07T15:20:45Z</time>
      </trkpt>
      <trkpt lat="43.414187" lon="1.475144">
        <ele>172.4</ele>
        <time>2014-02-07T15:20:54Z</time>
      </trkpt>
      <trkpt lat="43.414094" lon="1.475167">
        <ele>172.6</ele>
        <time>2014-02-07T15:21:03Z</time>
      </trkpt>
      <trkpt lat="43.413996" lon="1.475191">
        <ele>172.6</ele>
        <time>2014-02-07T15:21:12Z</time>
      </trkpt>
      <trkpt lat="43.413912" lon="1.475216">
        <ele>172.6</ele>
        <time>2014-02-07T15:21:21Z</time>
      </trkpt>
      <trkpt lat="43.413818" lon="1.475237">
        <ele>172.6</ele>
        <time>2014-02-07T15:21:29Z</time>
      </trkpt>
      <trkpt lat="43.413723" lon="1.475260">
        <ele>172.6</ele>
        <time>2014-02-07T15:21:38Z</time>
      </trkpt>
      <trkpt lat="43.413624" lon="1.475289">
        <ele>172.5</ele>
        <time>2014-02-07T15:21:47Z</time>
      </trkpt>
      <trkpt lat="43.413529" lon="1.475323">
        <ele>172.3</ele>
        <time>2014-02-07T15:21:56Z</time>
      </trkpt>
      <trkpt lat="43.413431" lon="1.475357">
        <ele>172.2</ele>
        <time>2014-02-07T15:22:05Z</time>
      </trkpt>
      <trkpt lat="43.413337" lon="1.475384">
        <ele>171.8</ele>
        <time>2014-02-07T15:22:14Z</time>
      </trkpt>
      <trkpt lat="43.413252" lon="1.475411">
        <ele>171.5</ele>
        <time>2014-02-07T15:22:23Z</time>
      </trkpt>
      <trkpt lat="43.413165" lon="1.475431">
        <ele>171.3</ele>
        <time>2014-02-07T15:22:34Z</time>
      </trkpt>
      <trkpt lat="43.413074" lon="1.475449">
        <ele>170.9</ele>
        <time>2014-02-07T15:22:44Z</time>
      </trkpt>
      <trkpt lat="43.412984" lon="1.475484">
        <ele>170.8</ele>
        <time>2014-02-07T15:22:54Z</time>
      </trkpt>
      <trkpt lat="43.412894" lon="1.475504">
        <ele>170.6</ele>
        <time>2014-02-07T15:23:04Z</time>
      </trkpt>
      <trkpt lat="43.412793" lon="1.475537">
        <ele>170.1</ele>
        <time>2014-02-07T15:23:14Z</time>
      </trkpt>
      <trkpt lat="43.412694" lon="1.475557">
        <ele>170.2</ele>
        <time>2014-02-07T15:23:24Z</time>
      </trkpt>
      <trkpt lat="43.412609" lon="1.475586">
        <ele>170.4</ele>
        <time>2014-02-07T15:23:33Z</time>
      </trkpt>
      <trkpt lat="43.412510" lon="1.475605">
        <ele>170.6</ele>
        <time>2014-02-07T15:23:43Z</time>
      </trkpt>
      <trkpt lat="43.412415" lon="1.475620">
        <ele>170.5</ele>
        <time>2014-02-07T15:23:53Z</time>
      </trkpt>
      <trkpt lat="43.412318" lon="1.475636">
        <ele>170.6</ele>
        <time>2014-02-07T15:24:02Z</time>
      </trkpt>
      <trkpt lat="43.412216" lon="1.475654">
        <ele>170.7</ele>
        <time>2014-02-07T15:24:11Z</time>
      </trkpt>
      <trkpt lat="43.412124" lon="1.475657">
        <ele>170.9</ele>
        <time>2014-02-07T15:24:20Z</time>
      </trkpt>
      <trkpt lat="43.412037" lon="1.475683">
        <ele>170.6</ele>
        <time>2014-02-07T15:24:33Z</time>
      </trkpt>
      <trkpt lat="43.411943" lon="1.475689">
        <ele>170.6</ele>
        <time>2014-02-07T15:24:42Z</time>
      </trkpt>
      <trkpt lat="43.411851" lon="1.475709">
        <ele>170.6</ele>
        <time>2014-02-07T15:24:51Z</time>
      </trkpt>
      <trkpt lat="43.411757" lon="1.475724">
        <ele>171.0</ele>
        <time>2014-02-07T15:25:00Z</time>
      </trkpt>
      <trkpt lat="43.411659" lon="1.475743">
        <ele>171.1</ele>
        <time>2014-02-07T15:25:09Z</time>
      </trkpt>
      <trkpt lat="43.411561" lon="1.475760">
        <ele>171.0</ele>
        <time>2014-02-07T15:25:18Z</time>
      </trkpt>
      <trkpt lat="43.411463" lon="1.475787">
        <ele>171.0</ele>
        <time>2014-02-07T15:25:27Z</time>
      </trkpt>
      <trkpt lat="43.411372" lon="1.475780">
        <ele>171.1</ele>
        <time>2014-02-07T15:25:37Z</time>
      </trkpt>
      <trkpt lat="43.411279" lon="1.475718">
        <ele>171.5</ele>
        <time>2014-02-07T15:25:47Z</time>
      </trkpt>
      <trkpt lat="43.411202" lon="1.475666">
        <ele>172.3</ele>
        <time>2014-02-07T15:26:00Z</time>
      </trkpt>
      <trkpt lat="43.411128" lon="1.475589">
        <ele>173.0</ele>
        <time>2014-02-07T15:26:12Z</time>
      </trkpt>
      <trkpt lat="43.411042" lon="1.475508">
        <ele>173.6</ele>
        <time>2014-02-07T15:26:23Z</time>
      </trkpt>
      <trkpt lat="43.410956" lon="1.475432">
        <ele>173.8</ele>
        <time>2014-02-07T15:26:33Z</time>
      </trkpt>
      <trkpt lat="43.410871" lon="1.475352">
        <ele>174.4</ele>
        <time>2014-02-07T15:26:43Z</time>
      </trkpt>
      <trkpt lat="43.410790" lon="1.475274">
        <ele>175.2</ele>
        <time>2014-02-07T15:26:53Z</time>
      </trkpt>
      <trkpt lat="43.410703" lon="1.475198">
        <ele>175.6</ele>
        <time>2014-02-07T15:27:02Z</time>
      </trkpt>
      <trkpt lat="43.410626" lon="1.475117">
        <ele>176.2</ele>
        <time>2014-02-07T15:27:12Z</time>
      </trkpt>
      <trkpt lat="43.410549" lon="1.475025">
        <ele>177.1</ele>
        <time>2014-02-07T15:27:22Z</time>
      </trkpt>
      <trkpt lat="43.410469" lon="1.474950">
        <ele>177.5</ele>
        <time>2014-02-07T15:27:31Z</time>
      </trkpt>
      <trkpt lat="43.410396" lon="1.474879">
        <ele>178.0</ele>
        <time>2014-02-07T15:27:39Z</time>
      </trkpt>
      <trkpt lat="43.410319" lon="1.474801">
        <ele>178.7</ele>
        <time>2014-02-07T15:27:49Z</time>
      </trkpt>
      <trkpt lat="43.410236" lon="1.474741">
        <ele>179.6</ele>
        <time>2014-02-07T15:27:59Z</time>
      </trkpt>
      <trkpt lat="43.410156" lon="1.474671">
        <ele>180.4</ele>
        <time>2014-02-07T15:28:09Z</time>
      </trkpt>
      <trkpt lat="43.410073" lon="1.474605">
        <ele>181.0</ele>
        <time>2014-02-07T15:28:19Z</time>
      </trkpt>
      <trkpt lat="43.410002" lon="1.474518">
        <ele>182.0</ele>
        <time>2014-02-07T15:28:30Z</time>
      </trkpt>
      <trkpt lat="43.409926" lon="1.474431">
        <ele>183.1</ele>
        <time>2014-02-07T15:28:40Z</time>
      </trkpt>
      <trkpt lat="43.409858" lon="1.474351">
        <ele>184.4</ele>
        <time>2014-02-07T15:28:50Z</time>
      </trkpt>
      <trkpt lat="43.409781" lon="1.474275">
        <ele>185.2</ele>
        <time>2014-02-07T15:29:00Z</time>
      </trkpt>
      <trkpt lat="43.409698" lon="1.474191">
        <ele>186.2</ele>
        <time>2014-02-07T15:29:10Z</time>
      </trkpt>
      <trkpt lat="43.409620" lon="1.474118">
        <ele>186.9</ele>
        <time>2014-02-07T15:29:20Z</time>
      </trkpt>
      <trkpt lat="43.409540" lon="1.474045">
        <ele>187.5</ele>
        <time>2014-02-07T15:29:30Z</time>
      </trkpt>
      <trkpt lat="43.409459" lon="1.473973">
        <ele>188.0</ele>
        <time>2014-02-07T15:29:39Z</time>
      </trkpt>
      <trkpt lat="43.409397" lon="1.473889">
        <ele>188.9</ele>
        <time>2014-02-07T15:29:58Z</time>
      </trkpt>
      <trkpt lat="43.409312" lon="1.473811">
        <ele>189.4</ele>
        <time>2014-02-07T15:30:10Z</time>
      </trkpt>
      <trkpt lat="43.409227" lon="1.473742">
        <ele>189.9</ele>
        <time>2014-02-07T15:30:20Z</time>
      </trkpt>
      <trkpt lat="43.409138" lon="1.473678">
        <ele>190.9</ele>
        <time>2014-02-07T15:30:31Z</time>
      </trkpt>
      <trkpt lat="43.409054" lon="1.473604">
        <ele>191.7</ele>
        <time>2014-02-07T15:30:41Z</time>
      </trkpt>
      <trkpt lat="43.408974" lon="1.473527">
        <ele>192.6</ele>
        <time>2014-02-07T15:30:51Z</time>
      </trkpt>
      <trkpt lat="43.408929" lon="1.473457">
        <ele>193.2</ele>
        <time>2014-02-07T15:31:28Z</time>
      </trkpt>
      <trkpt lat="43.408854" lon="1.473394">
        <ele>193.6</ele>
        <time>2014-02-07T15:31:40Z</time>
      </trkpt>
      <trkpt lat="43.408771" lon="1.473323">
        <ele>194.6</ele>
        <time>2014-02-07T15:31:51Z</time>
      </trkpt>
      <trkpt lat="43.408688" lon="1.473249">
        <ele>195.6</ele>
        <time>2014-02-07T15:32:03Z</time>
      </trkpt>
      <trkpt lat="43.408598" lon="1.473152">
        <ele>196.7</ele>
        <time>2014-02-07T15:32:16Z</time>
      </trkpt>
      <trkpt lat="43.408523" lon="1.473065">
        <ele>197.8</ele>
        <time>2014-02-07T15:32:28Z</time>
      </trkpt>
      <trkpt lat="43.408432" lon="1.472978">
        <ele>199.4</ele>
        <time>2014-02-07T15:32:41Z</time>
      </trkpt>
      <trkpt lat="43.408326" lon="1.472894">
        <ele>201.6</ele>
        <time>2014-02-07T15:32:58Z</time>
      </trkpt>
      <trkpt lat="43.408228" lon="1.472829">
        <ele>203.4</ele>
        <time>2014-02-07T15:33:12Z</time>
      </trkpt>
      <trkpt lat="43.408184" lon="1.472795">
        <ele>204.8</ele>
        <time>2014-02-07T15:34:26Z</time>
      </trkpt>
      <trkpt lat="43.408100" lon="1.472707">
        <ele>206.2</ele>
        <time>2014-02-07T15:34:41Z</time>
      </trkpt>
      <trkpt lat="43.408015" lon="1.472642">
        <ele>207.8</ele>
        <time>2014-02-07T15:34:54Z</time>
      </trkpt>
      <trkpt lat="43.407932" lon="1.472577">
        <ele>209.5</ele>
        <time>2014-02-07T15:35:09Z</time>
      </trkpt>
      <trkpt lat="43.407827" lon="1.472527">
        <ele>212.0</ele>
        <time>2014-02-07T15:35:26Z</time>
      </trkpt>
      <trkpt lat="43.407728" lon="1.472459">
        <ele>213.7</ele>
        <time>2014-02-07T15:35:39Z</time>
      </trkpt>
      <trkpt lat="43.407651" lon="1.472398">
        <ele>215.4</ele>
        <time>2014-02-07T15:35:53Z</time>
      </trkpt>
      <trkpt lat="43.407555" lon="1.472347">
        <ele>217.2</ele>
        <time>2014-02-07T15:36:07Z</time>
      </trkpt>
      <trkpt lat="43.407475" lon="1.472300">
        <ele>219.2</ele>
        <time>2014-02-07T15:36:24Z</time>
      </trkpt>
      <trkpt lat="43.407387" lon="1.472242">
        <ele>221.0</ele>
        <time>2014-02-07T15:36:40Z</time>
      </trkpt>
      <trkpt lat="43.407301" lon="1.472200">
        <ele>223.2</ele>
        <time>2014-02-07T15:36:55Z</time>
      </trkpt>
      <trkpt lat="43.407198" lon="1.472141">
        <ele>225.1</ele>
        <time>2014-02-07T15:37:11Z</time>
      </trkpt>
      <trkpt lat="43.407109" lon="1.472098">
        <ele>227.0</ele>
        <time>2014-02-07T15:37:22Z</time>
      </trkpt>
      <trkpt lat="43.407039" lon="1.472053">
        <ele>228.4</ele>
        <time>2014-02-07T15:37:34Z</time>
      </trkpt>
      <trkpt lat="43.406949" lon="1.471988">
        <ele>230.4</ele>
        <time>2014-02-07T15:37:48Z</time>
      </trkpt>
      <trkpt lat="43.406862" lon="1.471918">
        <ele>231.8</ele>
        <time>2014-02-07T15:38:01Z</time>
      </trkpt>
      <trkpt lat="43.406770" lon="1.471873">
        <ele>232.7</ele>
        <time>2014-02-07T15:38:12Z</time>
      </trkpt>
      <trkpt lat="43.406663" lon="1.471886">
        <ele>233.0</ele>
        <time>2014-02-07T15:40:01Z</time>
        <name>Labruyere-Dorsa</name>
      </trkpt>
      <trkpt lat="43.406615" lon="1.471972">
        <ele>232.8</ele>
        <time>2014-02-07T15:40:14Z</time>
      </trkpt>
      <trkpt lat="43.406581" lon="1.472091">
        <ele>233.0</ele>
        <time>2014-02-07T15:40:26Z</time>
      </trkpt>
      <trkpt lat="43.406555" lon="1.472214">
        <ele>232.8</ele>
        <time>2014-02-07T15:40:40Z</time>
      </trkpt>
      <trkpt lat="43.406513" lon="1.472333">
        <ele>232.8</ele>
        <time>2014-02-07T15:41:21Z</time>
      </trkpt>
      <trkpt lat="43.406466" lon="1.472438">
        <ele>232.8</ele>
        <time>2014-02-07T15:41:43Z</time>
      </trkpt>
      <trkpt lat="43.406451" lon="1.472559">
        <ele>232.6</ele>
        <time>2014-02-07T15:41:55Z</time>
      </trkpt>
      <trkpt lat="43.406469" lon="1.472681">
        <ele>232.2</ele>
        <time>2014-02-07T15:42:09Z</time>
      </trkpt>
      <trkpt lat="43.406441" lon="1.472810">
        <ele>231.6</ele>
        <time>2014-02-07T15:42:21Z</time>
      </trkpt>
      <trkpt lat="43.406402" lon="1.472932">
        <ele>230.9</ele>
        <time>2014-02-07T15:42:32Z</time>
      </trkpt>
      <trkpt lat="43.406380" lon="1.473087">
        <ele>230.6</ele>
        <time>2014-02-07T15:42:44Z</time>
      </trkpt>
      <trkpt lat="43.406355" lon="1.473228">
        <ele>230.0</ele>
        <time>2014-02-07T15:42:57Z</time>
      </trkpt>
      <trkpt lat="43.406338" lon="1.473361">
        <ele>229.3</ele>
        <time>2014-02-07T15:43:08Z</time>
      </trkpt>
      <trkpt lat="43.406350" lon="1.473442">
        <ele>228.8</ele>
        <time>2014-02-07T15:43:33Z</time>
      </trkpt>
      <trkpt lat="43.406350" lon="1.473576">
        <ele>228.4</ele>
        <time>2014-02-07T15:43:46Z</time>
      </trkpt>
      <trkpt lat="43.406324" lon="1.473710">
        <ele>227.6</ele>
        <time>2014-02-07T15:43:58Z</time>
      </trkpt>
      <trkpt lat="43.406283" lon="1.473845">
        <ele>226.7</ele>
        <time>2014-02-07T15:44:08Z</time>
      </trkpt>
      <trkpt lat="43.406222" lon="1.473906">
        <ele>225.6</ele>
        <time>2014-02-07T15:44:28Z</time>
      </trkpt>
      <trkpt lat="43.406137" lon="1.473940">
        <ele>224.3</ele>
        <time>2014-02-07T15:44:43Z</time>
      </trkpt>
      <trkpt lat="43.406044" lon="1.473998">
        <ele>223.4</ele>
        <time>2014-02-07T15:44:54Z</time>
      </trkpt>
      <trkpt lat="43.405940" lon="1.474047">
        <ele>222.4</ele>
        <time>2014-02-07T15:45:05Z</time>
      </trkpt>
      <trkpt lat="43.405836" lon="1.474049">
        <ele>220.6</ele>
        <time>2014-02-07T15:45:17Z</time>
      </trkpt>
      <trkpt lat="43.405731" lon="1.474093">
        <ele>218.4</ele>
        <time>2014-02-07T15:45:30Z</time>
      </trkpt>
      <trkpt lat="43.405617" lon="1.474107">
        <ele>216.6</ele>
        <time>2014-02-07T15:45:45Z</time>
      </trkpt>
      <trkpt lat="43.405514" lon="1.474137">
        <ele>215.2</ele>
        <time>2014-02-07T15:45:57Z</time>
      </trkpt>
      <trkpt lat="43.405422" lon="1.474171">
        <ele>213.7</ele>
        <time>2014-02-07T15:46:09Z</time>
      </trkpt>
      <trkpt lat="43.405327" lon="1.474205">
        <ele>212.0</ele>
        <time>2014-02-07T15:46:20Z</time>
      </trkpt>
      <trkpt lat="43.405244" lon="1.474234">
        <ele>210.6</ele>
        <time>2014-02-07T15:46:32Z</time>
      </trkpt>
      <trkpt lat="43.405157" lon="1.474250">
        <ele>209.5</ele>
        <time>2014-02-07T15:46:43Z</time>
      </trkpt>
      <trkpt lat="43.405060" lon="1.474251">
        <ele>208.3</ele>
        <time>2014-02-07T15:46:54Z</time>
      </trkpt>
      <trkpt lat="43.404961" lon="1.474264">
        <ele>207.1</ele>
        <time>2014-02-07T15:47:05Z</time>
      </trkpt>
      <trkpt lat="43.404855" lon="1.474251">
        <ele>206.6</ele>
        <time>2014-02-07T15:47:16Z</time>
      </trkpt>
      <trkpt lat="43.404760" lon="1.474246">
        <ele>205.9</ele>
        <time>2014-02-07T15:47:24Z</time>
      </trkpt>
      <trkpt lat="43.404657" lon="1.474267">
        <ele>205.2</ele>
        <time>2014-02-07T15:47:34Z</time>
      </trkpt>
      <trkpt lat="43.404560" lon="1.474302">
        <ele>205.3</ele>
        <time>2014-02-07T15:47:43Z</time>
      </trkpt>
      <trkpt lat="43.404467" lon="1.474325">
        <ele>205.5</ele>
        <time>2014-02-07T15:47:52Z</time>
      </trkpt>
      <trkpt lat="43.404370" lon="1.474338">
        <ele>205.7</ele>
        <time>2014-02-07T15:48:01Z</time>
      </trkpt>
      <trkpt lat="43.404278" lon="1.474332">
        <ele>206.0</ele>
        <time>2014-02-07T15:48:10Z</time>
      </trkpt>
      <trkpt lat="43.404186" lon="1.474316">
        <ele>206.6</ele>
        <time>2014-02-07T15:48:19Z</time>
      </trkpt>
      <trkpt lat="43.404089" lon="1.474282">
        <ele>207.4</ele>
        <time>2014-02-07T15:48:39Z</time>
      </trkpt>
      <trkpt lat="43.403989" lon="1.474258">
        <ele>207.9</ele>
        <time>2014-02-07T15:48:50Z</time>
      </trkpt>
      <trkpt lat="43.403903" lon="1.474234">
        <ele>208.5</ele>
        <time>2014-02-07T15:49:01Z</time>
      </trkpt>
      <trkpt lat="43.403818" lon="1.474216">
        <ele>209.2</ele>
        <time>2014-02-07T15:49:11Z</time>
      </trkpt>
      <trkpt lat="43.403721" lon="1.474189">
        <ele>209.9</ele>
        <time>2014-02-07T15:49:21Z</time>
      </trkpt>
      <trkpt lat="43.403632" lon="1.474162">
        <ele>210.5</ele>
        <time>2014-02-07T15:49:31Z</time>
      </trkpt>
      <trkpt lat="43.403537" lon="1.474124">
        <ele>211.8</ele>
        <time>2014-02-07T15:49:43Z</time>
      </trkpt>
      <trkpt lat="43.403444" lon="1.474090">
        <ele>212.6</ele>
        <time>2014-02-07T15:49:54Z</time>
      </trkpt>
      <trkpt lat="43.403348" lon="1.474049">
        <ele>213.6</ele>
        <time>2014-02-07T15:50:08Z</time>
      </trkpt>
      <trkpt lat="43.403243" lon="1.473979">
        <ele>214.5</ele>
        <time>2014-02-07T15:52:19Z</time>
      </trkpt>
      <trkpt lat="43.403160" lon="1.473903">
        <ele>215.9</ele>
        <time>2014-02-07T15:52:35Z</time>
      </trkpt>
      <trkpt lat="43.403052" lon="1.473800">
        <ele>218.4</ele>
        <time>2014-02-07T15:52:55Z</time>
      </trkpt>
      <trkpt lat="43.402966" lon="1.473743">
        <ele>220.7</ele>
        <time>2014-02-07T15:53:14Z</time>
      </trkpt>
      <trkpt lat="43.402872" lon="1.473677">
        <ele>222.9</ele>
        <time>2014-02-07T15:53:34Z</time>
      </trkpt>
      <trkpt lat="43.402786" lon="1.473600">
        <ele>224.8</ele>
        <time>2014-02-07T15:53:52Z</time>
      </trkpt>
      <trkpt lat="43.402686" lon="1.473567">
        <ele>227.4</ele>
        <time>2014-02-07T15:54:10Z</time>
      </trkpt>
      <trkpt lat="43.402586" lon="1.473524">
        <ele>229.0</ele>
        <time>2014-02-07T15:54:26Z</time>
      </trkpt>
      <trkpt lat="43.402501" lon="1.473462">
        <ele>230.2</ele>
        <time>2014-02-07T15:54:38Z</time>
      </trkpt>
      <trkpt lat="43.402411" lon="1.473404">
        <ele>230.9</ele>
        <time>2014-02-07T15:54:50Z</time>
      </trkpt>
      <trkpt lat="43.402362" lon="1.473284">
        <ele>231.4</ele>
        <time>2014-02-07T15:55:01Z</time>
      </trkpt>
      <trkpt lat="43.402399" lon="1.473154">
        <ele>231.5</ele>
        <time>2014-02-07T15:55:13Z</time>
      </trkpt>
      <trkpt lat="43.402430" lon="1.473014">
        <ele>232.0</ele>
        <time>2014-02-07T15:55:26Z</time>
      </trkpt>
      <trkpt lat="43.402471" lon="1.472880">
        <ele>231.8</ele>
        <time>2014-02-07T15:55:39Z</time>
      </trkpt>
      <trkpt lat="43.402500" lon="1.472733">
        <ele>232.3</ele>
        <time>2014-02-07T15:55:52Z</time>
      </trkpt>
      <trkpt lat="43.402532" lon="1.472586">
        <ele>232.2</ele>
        <time>2014-02-07T15:56:04Z</time>
      </trkpt>
      <trkpt lat="43.402562" lon="1.472459">
        <ele>232.2</ele>
        <time>2014-02-07T15:56:16Z</time>
      </trkpt>
      <trkpt lat="43.402608" lon="1.472340">
        <ele>232.6</ele>
        <time>2014-02-07T15:56:55Z</time>
      </trkpt>
      <trkpt lat="43.402639" lon="1.472228">
        <ele>232.5</ele>
        <time>2014-02-07T15:57:23Z</time>
      </trkpt>
      <trkpt lat="43.402658" lon="1.472095">
        <ele>232.4</ele>
        <time>2014-02-07T15:57:33Z</time>
      </trkpt>
      <trkpt lat="43.402677" lon="1.471966">
        <ele>232.1</ele>
        <time>2014-02-07T15:57:43Z</time>
      </trkpt>
      <trkpt lat="43.402699" lon="1.471844">
        <ele>231.9</ele>
        <time>2014-02-07T15:57:53Z</time>
      </trkpt>
      <trkpt lat="43.402730" lon="1.471721">
        <ele>231.7</ele>
        <time>2014-02-07T15:58:03Z</time>
      </trkpt>
      <trkpt lat="43.402760" lon="1.471597">
        <ele>231.5</ele>
        <time>2014-02-07T15:58:13Z</time>
      </trkpt>
      <trkpt lat="43.402789" lon="1.471476">
        <ele>231.6</ele>
        <time>2014-02-07T15:58:23Z</time>
      </trkpt>
      <trkpt lat="43.402814" lon="1.471363">
        <ele>231.7</ele>
        <time>2014-02-07T15:58:33Z</time>
      </trkpt>
      <trkpt lat="43.402845" lon="1.471237">
        <ele>231.7</ele>
        <time>2014-02-07T15:58:43Z</time>
      </trkpt>
      <trkpt lat="43.402872" lon="1.471120">
        <ele>231.7</ele>
        <time>2014-02-07T15:58:53Z</time>
      </trkpt>
      <trkpt lat="43.402908" lon="1.470982">
        <ele>231.6</ele>
        <time>2014-02-07T15:59:04Z</time>
      </trkpt>
      <trkpt lat="43.402927" lon="1.470854">
        <ele>231.6</ele>
        <time>2014-02-07T15:59:14Z</time>
      </trkpt>
      <trkpt lat="43.402954" lon="1.470705">
        <ele>231.8</ele>
        <time>2014-02-07T15:59:26Z</time>
      </trkpt>
      <trkpt lat="43.402987" lon="1.470583">
        <ele>232.0</ele>
        <time>2014-02-07T15:59:36Z</time>
      </trkpt>
      <trkpt lat="43.403016" lon="1.470451">
        <ele>232.0</ele>
        <time>2014-02-07T15:59:48Z</time>
      </trkpt>
      <trkpt lat="43.403049" lon="1.470315">
        <ele>231.9</ele>
        <time>2014-02-07T15:59:59Z</time>
      </trkpt>
      <trkpt lat="43.403075" lon="1.470186">
        <ele>232.1</ele>
        <time>2014-02-07T16:00:10Z</time>
      </trkpt>
      <trkpt lat="43.403090" lon="1.470065">
        <ele>232.3</ele>
        <time>2014-02-07T16:00:20Z</time>
      </trkpt>
      <trkpt lat="43.403078" lon="1.469923">
        <ele>232.2</ele>
        <time>2014-02-07T16:02:03Z</time>
      </trkpt>
      <trkpt lat="43.403021" lon="1.469811">
        <ele>231.8</ele>
        <time>2014-02-07T16:02:13Z</time>
      </trkpt>
      <trkpt lat="43.402974" lon="1.469695">
        <ele>231.2</ele>
        <time>2014-02-07T16:02:23Z</time>
      </trkpt>
      <trkpt lat="43.402934" lon="1.469570">
        <ele>230.7</ele>
        <time>2014-02-07T16:02:32Z</time>
      </trkpt>
      <trkpt lat="43.402937" lon="1.469441">
        <ele>230.1</ele>
        <time>2014-02-07T16:02:41Z</time>
      </trkpt>
      <trkpt lat="43.402947" lon="1.469301">
        <ele>229.9</ele>
        <time>2014-02-07T16:02:50Z</time>
      </trkpt>
      <trkpt lat="43.402972" lon="1.469165">
        <ele>229.8</ele>
        <time>2014-02-07T16:03:00Z</time>
      </trkpt>
      <trkpt lat="43.402996" lon="1.469020">
        <ele>229.9</ele>
        <time>2014-02-07T16:04:23Z</time>
      </trkpt>
      <trkpt lat="43.403030" lon="1.468867">
        <ele>230.0</ele>
        <time>2014-02-07T16:04:34Z</time>
      </trkpt>
      <trkpt lat="43.403056" lon="1.468753">
        <ele>229.6</ele>
        <time>2014-02-07T16:04:42Z</time>
      </trkpt>
      <trkpt lat="43.403079" lon="1.468632">
        <ele>229.0</ele>
        <time>2014-02-07T16:04:50Z</time>
      </trkpt>
      <trkpt lat="43.403070" lon="1.468514">
        <ele>228.1</ele>
        <time>2014-02-07T16:05:03Z</time>
      </trkpt>
      <trkpt lat="43.403105" lon="1.468452">
        <ele>227.1</ele>
        <time>2014-02-07T16:06:21Z</time>
        <name>Rivel</name>
      </trkpt>
      <trkpt lat="43.403205" lon="1.468480">
        <ele>227.9</ele>
        <time>2014-02-07T16:06:32Z</time>
      </trkpt>
      <trkpt lat="43.403293" lon="1.468554">
        <ele>228.9</ele>
        <time>2014-02-07T16:06:43Z</time>
      </trkpt>
      <trkpt lat="43.403386" lon="1.468510">
        <ele>229.6</ele>
        <time>2014-02-07T16:06:55Z</time>
      </trkpt>
      <trkpt lat="43.403427" lon="1.468374">
        <ele>230.3</ele>
        <time>2014-02-07T16:07:18Z</time>
      </trkpt>
      <trkpt lat="43.403454" lon="1.468234">
        <ele>230.7</ele>
        <time>2014-02-07T16:07:28Z</time>
      </trkpt>
      <trkpt lat="43.403474" lon="1.468101">
        <ele>230.9</ele>
        <time>2014-02-07T16:07:39Z</time>
      </trkpt>
      <trkpt lat="43.403505" lon="1.467964">
        <ele>230.7</ele>
        <time>2014-02-07T16:07:50Z</time>
      </trkpt>
      <trkpt lat="43.403519" lon="1.467825">
        <ele>230.3</ele>
        <time>2014-02-07T16:08:01Z</time>
      </trkpt>
      <trkpt lat="43.403543" lon="1.467699">
        <ele>229.8</ele>
        <time>2014-02-07T16:08:11Z</time>
      </trkpt>
      <trkpt lat="43.403552" lon="1.467566">
        <ele>229.5</ele>
        <time>2014-02-07T16:08:21Z</time>
      </trkpt>
      <trkpt lat="43.403569" lon="1.467457">
        <ele>229.3</ele>
        <time>2014-02-07T16:08:31Z</time>
      </trkpt>
      <trkpt lat="43.403576" lon="1.467339">
        <ele>229.0</ele>
        <time>2014-02-07T16:08:41Z</time>
      </trkpt>
      <trkpt lat="43.403598" lon="1.467220">
        <ele>228.4</ele>
        <time>2014-02-07T16:08:51Z</time>
      </trkpt>
      <trkpt lat="43.403623" lon="1.467085">
        <ele>228.1</ele>
        <time>2014-02-07T16:09:02Z</time>
      </trkpt>
      <trkpt lat="43.403644" lon="1.466954">
        <ele>227.6</ele>
        <time>2014-02-07T16:09:13Z</time>
      </trkpt>
      <trkpt lat="43.403662" lon="1.466825">
        <ele>227.1</ele>
        <time>2014-02-07T16:09:23Z</time>
      </trkpt>
      <trkpt lat="43.403676" lon="1.466678">
        <ele>226.4</ele>
        <time>2014-02-07T16:09:34Z</time>
      </trkpt>
      <trkpt lat="43.403684" lon="1.466555">
        <ele>225.8</ele>
        <time>2014-02-07T16:09:43Z</time>
      </trkpt>
      <trkpt lat="43.403683" lon="1.466422">
        <ele>225.4</ele>
        <time>2014-02-07T16:09:53Z</time>
      </trkpt>
      <trkpt lat="43.403695" lon="1.466298">
        <ele>224.7</ele>
        <time>2014-02-07T16:10:02Z</time>
      </trkpt>
      <trkpt lat="43.403715" lon="1.466174">
        <ele>224.2</ele>
        <time>2014-02-07T16:10:11Z</time>
      </trkpt>
      <trkpt lat="43.403738" lon="1.466046">
        <ele>223.7</ele>
        <time>2014-02-07T16:10:21Z</time>
      </trkpt>
      <trkpt lat="43.403759" lon="1.465914">
        <ele>223.4</ele>
        <time>2014-02-07T16:10:32Z</time>
      </trkpt>
      <trkpt lat="43.403767" lon="1.465780">
        <ele>223.1</ele>
        <time>2014-02-07T16:10:42Z</time>
      </trkpt>
      <trkpt lat="43.403786" lon="1.465661">
        <ele>223.0</ele>
        <time>2014-02-07T16:10:53Z</time>
      </trkpt>
      <trkpt lat="43.403799" lon="1.465528">
        <ele>222.7</ele>
        <time>2014-02-07T16:11:06Z</time>
      </trkpt>
      <trkpt lat="43.403815" lon="1.465396">
        <ele>222.4</ele>
        <time>2014-02-07T16:11:16Z</time>
      </trkpt>
      <trkpt lat="43.403836" lon="1.465270">
        <ele>222.3</ele>
        <time>2014-02-07T16:11:25Z</time>
      </trkpt>
      <trkpt lat="43.403853" lon="1.465147">
        <ele>222.1</ele>
        <time>2014-02-07T16:11:34Z</time>
      </trkpt>
      <trkpt lat="43.403867" lon="1.465018">
        <ele>222.0</ele>
        <time>2014-02-07T16:11:44Z</time>
      </trkpt>
      <trkpt lat="43.403883" lon="1.464900">
        <ele>222.0</ele>
        <time>2014-02-07T16:11:53Z</time>
      </trkpt>
      <trkpt lat="43.403896" lon="1.464769">
        <ele>221.9</ele>
        <time>2014-02-07T16:12:02Z</time>
      </trkpt>
      <trkpt lat="43.403903" lon="1.464642">
        <ele>221.6</ele>
        <time>2014-02-07T16:12:12Z</time>
      </trkpt>
      <trkpt lat="43.403916" lon="1.464524">
        <ele>221.7</ele>
        <time>2014-02-07T16:12:21Z</time>
      </trkpt>
      <trkpt lat="43.403932" lon="1.464391">
        <ele>221.4</ele>
        <time>2014-02-07T16:12:31Z</time>
      </trkpt>
      <trkpt lat="43.403950" lon="1.464273">
        <ele>221.6</ele>
        <time>2014-02-07T16:12:40Z</time>
      </trkpt>
      <trkpt lat="43.403964" lon="1.464132">
        <ele>221.6</ele>
        <time>2014-02-07T16:12:50Z</time>
      </trkpt>
      <trkpt lat="43.403982" lon="1.463989">
        <ele>221.6</ele>
        <time>2014-02-07T16:13:00Z</time>
      </trkpt>
      <trkpt lat="43.403994" lon="1.463863">
        <ele>221.4</ele>
        <time>2014-02-07T16:13:10Z</time>
      </trkpt>
      <trkpt lat="43.404004" lon="1.463725">
        <ele>221.6</ele>
        <time>2014-02-07T16:13:20Z</time>
      </trkpt>
      <trkpt lat="43.404005" lon="1.463600">
        <ele>221.6</ele>
        <time>2014-02-07T16:13:30Z</time>
      </trkpt>
      <trkpt lat="43.404018" lon="1.463474">
        <ele>222.0</ele>
        <time>2014-02-07T16:13:40Z</time>
      </trkpt>
      <trkpt lat="43.404029" lon="1.463372">
        <ele>222.3</ele>
        <time>2014-02-07T16:14:06Z</time>
      </trkpt>
      <trkpt lat="43.404037" lon="1.463233">
        <ele>222.4</ele>
        <time>2014-02-07T16:14:19Z</time>
      </trkpt>
      <trkpt lat="43.404042" lon="1.463091">
        <ele>222.3</ele>
        <time>2014-02-07T16:14:30Z</time>
      </trkpt>
      <trkpt lat="43.404059" lon="1.462954">
        <ele>222.2</ele>
        <time>2014-02-07T16:14:40Z</time>
      </trkpt>
      <trkpt lat="43.404068" lon="1.462828">
        <ele>222.4</ele>
        <time>2014-02-07T16:14:50Z</time>
      </trkpt>
      <trkpt lat="43.404083" lon="1.462707">
        <ele>222.2</ele>
        <time>2014-02-07T16:15:00Z</time>
      </trkpt>
      <trkpt lat="43.404099" lon="1.462577">
        <ele>222.4</ele>
        <time>2014-02-07T16:15:10Z</time>
      </trkpt>
      <trkpt lat="43.404113" lon="1.462441">
        <ele>222.2</ele>
        <time>2014-02-07T16:15:20Z</time>
      </trkpt>
      <trkpt lat="43.404128" lon="1.462302">
        <ele>222.1</ele>
        <time>2014-02-07T16:15:30Z</time>
      </trkpt>
      <trkpt lat="43.404144" lon="1.462180">
        <ele>221.9</ele>
        <time>2014-02-07T16:15:39Z</time>
      </trkpt>
      <trkpt lat="43.404156" lon="1.462041">
        <ele>221.6</ele>
        <time>2014-02-07T16:15:50Z</time>
      </trkpt>
      <trkpt lat="43.404176" lon="1.461906">
        <ele>221.4</ele>
        <time>2014-02-07T16:16:01Z</time>
      </trkpt>
      <trkpt lat="43.404194" lon="1.461772">
        <ele>221.1</ele>
        <time>2014-02-07T16:16:12Z</time>
      </trkpt>
      <trkpt lat="43.404226" lon="1.461650">
        <ele>221.0</ele>
        <time>2014-02-07T16:16:24Z</time>
      </trkpt>
      <trkpt lat="43.404238" lon="1.461531">
        <ele>220.8</ele>
        <time>2014-02-07T16:16:33Z</time>
      </trkpt>
      <trkpt lat="43.404256" lon="1.461409">
        <ele>220.8</ele>
        <time>2014-02-07T16:16:43Z</time>
      </trkpt>
      <trkpt lat="43.404288" lon="1.461270">
        <ele>220.8</ele>
        <time>2014-02-07T16:16:54Z</time>
      </trkpt>
      <trkpt lat="43.404326" lon="1.461142">
        <ele>220.8</ele>
        <time>2014-02-07T16:17:04Z</time>
      </trkpt>
      <trkpt lat="43.404346" lon="1.461018">
        <ele>220.5</ele>
        <time>2014-02-07T16:17:14Z</time>
      </trkpt>
      <trkpt lat="43.404374" lon="1.460939">
        <ele>220.2</ele>
        <time>2014-02-07T16:17:50Z</time>
      </trkpt>
      <trkpt lat="43.404371" lon="1.460815">
        <ele>219.6</ele>
        <time>2014-02-07T16:18:00Z</time>
      </trkpt>
      <trkpt lat="43.404292" lon="1.460755">
        <ele>219.4</ele>
        <time>2014-02-07T16:18:10Z</time>
      </trkpt>
      <trkpt lat="43.404195" lon="1.460716">
        <ele>218.7</ele>
        <time>2014-02-07T16:18:21Z</time>
      </trkpt>
      <trkpt lat="43.404095" lon="1.460681">
        <ele>217.9</ele>
        <time>2014-02-07T16:18:32Z</time>
      </trkpt>
      <trkpt lat="43.404005" lon="1.460670">
        <ele>217.1</ele>
        <time>2014-02-07T16:18:42Z</time>
      </trkpt>
      <trkpt lat="43.403915" lon="1.460640">
        <ele>215.9</ele>
        <time>2014-02-07T16:18:52Z</time>
      </trkpt>
      <trkpt lat="43.403826" lon="1.460613">
        <ele>214.8</ele>
        <time>2014-02-07T16:19:02Z</time>
      </trkpt>
      <trkpt lat="43.403738" lon="1.460577">
        <ele>213.5</ele>
        <time>2014-02-07T16:19:12Z</time>
      </trkpt>
      <trkpt lat="43.403650" lon="1.460549">
        <ele>212.4</ele>
        <time>2014-02-07T16:19:22Z</time>
      </trkpt>
      <trkpt lat="43.403571" lon="1.460522">
        <ele>211.4</ele>
        <time>2014-02-07T16:19:32Z</time>
      </trkpt>
      <trkpt lat="43.403479" lon="1.460497">
        <ele>210.0</ele>
        <time>2014-02-07T16:19:43Z</time>
      </trkpt>
      <trkpt lat="43.403388" lon="1.460472">
        <ele>208.8</ele>
        <time>2014-02-07T16:19:53Z</time>
      </trkpt>
      <trkpt lat="43.403288" lon="1.460450">
        <ele>207.5</ele>
        <time>2014-02-07T16:20:03Z</time>
      </trkpt>
      <trkpt lat="43.403192" lon="1.460417">
        <ele>206.1</ele>
        <time>2014-02-07T16:20:14Z</time>
      </trkpt>
      <trkpt lat="43.403103" lon="1.460400">
        <ele>204.7</ele>
        <time>2014-02-07T16:20:24Z</time>
      </trkpt>
      <trkpt lat="43.403011" lon="1.460369">
        <ele>203.1</ele>
        <time>2014-02-07T16:20:35Z</time>
      </trkpt>
      <trkpt lat="43.402922" lon="1.460333">
        <ele>201.8</ele>
        <time>2014-02-07T16:20:45Z</time>
      </trkpt>
      <trkpt lat="43.402829" lon="1.460315">
        <ele>200.3</ele>
        <time>2014-02-07T16:20:55Z</time>
      </trkpt>
      <trkpt lat="43.402745" lon="1.460293">
        <ele>199.3</ele>
        <time>2014-02-07T16:21:05Z</time>
      </trkpt>
      <trkpt lat="43.402651" lon="1.460257">
        <ele>198.3</ele>
        <time>2014-02-07T16:21:15Z</time>
      </trkpt>
      <trkpt lat="43.402559" lon="1.460227">
        <ele>197.1</ele>
        <time>2014-02-07T16:21:25Z</time>
      </trkpt>
      <trkpt lat="43.402458" lon="1.460209">
        <ele>196.1</ele>
        <time>2014-02-07T16:21:36Z</time>
      </trkpt>
      <trkpt lat="43.402366" lon="1.460177">
        <ele>195.5</ele>
        <time>2014-02-07T16:21:46Z</time>
      </trkpt>
      <trkpt lat="43.402267" lon="1.460164">
        <ele>194.6</ele>
        <time>2014-02-07T16:21:57Z</time>
      </trkpt>
      <trkpt lat="43.402175" lon="1.460144">
        <ele>194.2</ele>
        <time>2014-02-07T16:22:07Z</time>
      </trkpt>
      <trkpt lat="43.402086" lon="1.460116">
        <ele>193.6</ele>
        <time>2014-02-07T16:22:17Z</time>
      </trkpt>
      <trkpt lat="43.401992" lon="1.460103">
        <ele>193.1</ele>
        <time>2014-02-07T16:22:27Z</time>
      </trkpt>
      <trkpt lat="43.401904" lon="1.460077">
        <ele>192.6</ele>
        <time>2014-02-07T16:22:37Z</time>
      </trkpt>
      <trkpt lat="43.401814" lon="1.460048">
        <ele>192.3</ele>
        <time>2014-02-07T16:22:47Z</time>
      </trkpt>
      <trkpt lat="43.401718" lon="1.460018">
        <ele>191.7</ele>
        <time>2014-02-07T16:22:57Z</time>
      </trkpt>
      <trkpt lat="43.401631" lon="1.459994">
        <ele>191.4</ele>
        <time>2014-02-07T16:23:06Z</time>
      </trkpt>
      <trkpt lat="43.401531" lon="1.459975">
        <ele>190.8</ele>
        <time>2014-02-07T16:23:16Z</time>
      </trkpt>
      <trkpt lat="43.401444" lon="1.459943">
        <ele>190.3</ele>
        <time>2014-02-07T16:23:25Z</time>
      </trkpt>
      <trkpt lat="43.401362" lon="1.459920">
        <ele>190.2</ele>
        <time>2014-02-07T16:23:34Z</time>
      </trkpt>
      <trkpt lat="43.401273" lon="1.459885">
        <ele>189.7</ele>
        <time>2014-02-07T16:23:43Z</time>
      </trkpt>
      <trkpt lat="43.401181" lon="1.459855">
        <ele>189.4</ele>
        <time>2014-02-07T16:23:53Z</time>
      </trkpt>
      <trkpt lat="43.401076" lon="1.459830">
        <ele>189.0</ele>
        <time>2014-02-07T16:24:03Z</time>
      </trkpt>
      <trkpt lat="43.400977" lon="1.459799">
        <ele>188.6</ele>
        <time>2014-02-07T16:24:13Z</time>
      </trkpt>
      <trkpt lat="43.400887" lon="1.459773">
        <ele>188.1</ele>
        <time>2014-02-07T16:24:23Z</time>
      </trkpt>
      <trkpt lat="43.400792" lon="1.459739">
        <ele>187.8</ele>
        <time>2014-02-07T16:24:33Z</time>
      </trkpt>
      <trkpt lat="43.400737" lon="1.459619">
        <ele>187.6</ele>
        <time>2014-02-07T16:24:43Z</time>
      </trkpt>
      <trkpt lat="43.400735" lon="1.459484">
        <ele>187.3</ele>
        <time>2014-02-07T16:24:53Z</time>
      </trkpt>
      <trkpt lat="43.400740" lon="1.459327">
        <ele>186.9</ele>
        <time>2014-02-07T16:25:03Z</time>
      </trkpt>
      <trkpt lat="43.400736" lon="1.459170">
        <ele>186.5</ele>
        <time>2014-02-07T16:25:14Z</time>
      </trkpt>
      <trkpt lat="43.400739" lon="1.459013">
        <ele>186.3</ele>
        <time>2014-02-07T16:25:24Z</time>
      </trkpt>
      <trkpt lat="43.400749" lon="1.458840">
        <ele>186.1</ele>
        <time>2014-02-07T16:25:35Z</time>
      </trkpt>
      <trkpt lat="43.400753" lon="1.458656">
        <ele>185.8</ele>
        <time>2014-02-07T16:25:47Z</time>
      </trkpt>
      <trkpt lat="43.400760" lon="1.458491">
        <ele>185.6</ele>
        <time>2014-02-07T16:25:58Z</time>
      </trkpt>
      <trkpt lat="43.400757" lon="1.458339">
        <ele>185.3</ele>
        <time>2014-02-07T16:26:07Z</time>
      </trkpt>
      <trkpt lat="43.400769" lon="1.458194">
        <ele>184.8</ele>
        <time>2014-02-07T16:26:16Z</time>
      </trkpt>
      <trkpt lat="43.400777" lon="1.458065">
        <ele>184.5</ele>
        <time>2014-02-07T16:26:24Z</time>
      </trkpt>
      <trkpt lat="43.400800" lon="1.457944">
        <ele>184.4</ele>
        <time>2014-02-07T16:26:32Z</time>
      </trkpt>
      <trkpt lat="43.400816" lon="1.457814">
        <ele>184.1</ele>
        <time>2014-02-07T16:26:41Z</time>
      </trkpt>
      <trkpt lat="43.400843" lon="1.457685">
        <ele>183.8</ele>
        <time>2014-02-07T16:26:50Z</time>
      </trkpt>
      <trkpt lat="43.400863" lon="1.457570">
        <ele>183.5</ele>
        <time>2014-02-07T16:26:59Z</time>
      </trkpt>
      <trkpt lat="43.400885" lon="1.457451">
        <ele>183.2</ele>
        <time>2014-02-07T16:27:08Z</time>
      </trkpt>
      <trkpt lat="43.400907" lon="1.457330">
        <ele>182.9</ele>
        <time>2014-02-07T16:27:17Z</time>
      </trkpt>
      <trkpt lat="43.400927" lon="1.457207">
        <ele>182.6</ele>
        <time>2014-02-07T16:27:26Z</time>
      </trkpt>
      <trkpt lat="43.400959" lon="1.457086">
        <ele>182.4</ele>
        <time>2014-02-07T16:27:35Z</time>
      </trkpt>
      <trkpt lat="43.400977" lon="1.456957">
        <ele>182.2</ele>
        <time>2014-02-07T16:27:44Z</time>
      </trkpt>
      <trkpt lat="43.400998" lon="1.456833">
        <ele>182.3</ele>
        <time>2014-02-07T16:28:10Z</time>
      </trkpt>
      <trkpt lat="43.401033" lon="1.456694">
        <ele>182.4</ele>
        <time>2014-02-07T16:28:21Z</time>
      </trkpt>
      <trkpt lat="43.401068" lon="1.456568">
        <ele>181.9</ele>
        <time>2014-02-07T16:28:30Z</time>
      </trkpt>
      <trkpt lat="43.401086" lon="1.456443">
        <ele>181.7</ele>
        <time>2014-02-07T16:28:39Z</time>
      </trkpt>
      <trkpt lat="43.401109" lon="1.456318">
        <ele>181.6</ele>
        <time>2014-02-07T16:28:48Z</time>
      </trkpt>
      <trkpt lat="43.401135" lon="1.456198">
        <ele>181.4</ele>
        <time>2014-02-07T16:28:57Z</time>
      </trkpt>
      <trkpt lat="43.401162" lon="1.456076">
        <ele>181.4</ele>
        <time>2014-02-07T16:29:07Z</time>
      </trkpt>
      <trkpt lat="43.401186" lon="1.455958">
        <ele>181.2</ele>
        <time>2014-02-07T16:29:16Z</time>
      </trkpt>
      <trkpt lat="43.401190" lon="1.455834">
        <ele>181.1</ele>
        <time>2014-02-07T16:29:25Z</time>
      </trkpt>
      <trkpt lat="43.401226" lon="1.455712">
        <ele>180.9</ele>
        <time>2014-02-07T16:29:34Z</time>
      </trkpt>
      <trkpt lat="43.401268" lon="1.455609">
        <ele>180.7</ele>
        <time>2014-02-07T16:29:43Z</time>
      </trkpt>
      <trkpt lat="43.401306" lon="1.455489">
        <ele>180.7</ele>
        <time>2014-02-07T16:29:53Z</time>
      </trkpt>
      <trkpt lat="43.401356" lon="1.455377">
        <ele>180.3</ele>
        <time>2014-02-07T16:30:03Z</time>
      </trkpt>
      <trkpt lat="43.401430" lon="1.455282">
        <ele>180.2</ele>
        <time>2014-02-07T16:30:13Z</time>
      </trkpt>
      <trkpt lat="43.401511" lon="1.455188">
        <ele>180.1</ele>
        <time>2014-02-07T16:30:23Z</time>
      </trkpt>
      <trkpt lat="43.401592" lon="1.455105">
        <ele>180.1</ele>
        <time>2014-02-07T16:30:33Z</time>
      </trkpt>
      <trkpt lat="43.401677" lon="1.455032">
        <ele>179.7</ele>
        <time>2014-02-07T16:30:43Z</time>
      </trkpt>
      <trkpt lat="43.401762" lon="1.454950">
        <ele>179.6</ele>
        <time>2014-02-07T16:30:53Z</time>
      </trkpt>
      <trkpt lat="43.401839" lon="1.454881">
        <ele>179.3</ele>
        <time>2014-02-07T16:31:02Z</time>
      </trkpt>
      <trkpt lat="43.401921" lon="1.454802">
        <ele>179.2</ele>
        <time>2014-02-07T16:31:12Z</time>
      </trkpt>
      <trkpt lat="43.401999" lon="1.454734">
        <ele>179.3</ele>
        <time>2014-02-07T16:31:22Z</time>
      </trkpt>
      <trkpt lat="43.402079" lon="1.454665">
        <ele>179.1</ele>
        <time>2014-02-07T16:31:32Z</time>
      </trkpt>
      <trkpt lat="43.402148" lon="1.454568">
        <ele>178.9</ele>
        <time>2014-02-07T16:31:43Z</time>
      </trkpt>
      <trkpt lat="43.402213" lon="1.454474">
        <ele>178.7</ele>
        <time>2014-02-07T16:31:53Z</time>
      </trkpt>
      <trkpt lat="43.402273" lon="1.454393">
        <ele>178.8</ele>
        <time>2014-02-07T16:32:03Z</time>
      </trkpt>
      <trkpt lat="43.402348" lon="1.454302">
        <ele>178.6</ele>
        <time>2014-02-07T16:32:12Z</time>
      </trkpt>
      <trkpt lat="43.402403" lon="1.454197">
        <ele>178.3</ele>
        <time>2014-02-07T16:32:22Z</time>
      </trkpt>
      <trkpt lat="43.402466" lon="1.454102">
        <ele>178.1</ele>
        <time>2014-02-07T16:32:33Z</time>
      </trkpt>
      <trkpt lat="43.402542" lon="1.454019">
        <ele>178.2</ele>
        <time>2014-02-07T16:33:10Z</time>
      </trkpt>
      <trkpt lat="43.402587" lon="1.453904">
        <ele>178.2</ele>
        <time>2014-02-07T16:33:21Z</time>
      </trkpt>
      <trkpt lat="43.402637" lon="1.453802">
        <ele>178.1</ele>
        <time>2014-02-07T16:33:31Z</time>
      </trkpt>
      <trkpt lat="43.402705" lon="1.453713">
        <ele>178.1</ele>
        <time>2014-02-07T16:33:41Z</time>
      </trkpt>
      <trkpt lat="43.402764" lon="1.453605">
        <ele>178.0</ele>
        <time>2014-02-07T16:33:52Z</time>
      </trkpt>
      <trkpt lat="43.402819" lon="1.453505">
        <ele>177.8</ele>
        <time>2014-02-07T16:34:09Z</time>
      </trkpt>
      <trkpt lat="43.402868" lon="1.453388">
        <ele>177.6</ele>
        <time>2014-02-07T16:34:19Z</time>
      </trkpt>
      <trkpt lat="43.402920" lon="1.453277">
        <ele>177.5</ele>
        <time>2014-02-07T16:34:29Z</time>
      </trkpt>
      <trkpt lat="43.402969" lon="1.453151">
        <ele>177.6</ele>
        <time>2014-02-07T16:34:39Z</time>
      </trkpt>
      <trkpt lat="43.403013" lon="1.453039">
        <ele>177.4</ele>
        <time>2014-02-07T16:34:48Z</time>
      </trkpt>
      <trkpt lat="43.403059" lon="1.452931">
        <ele>177.3</ele>
        <time>2014-02-07T16:34:57Z</time>
      </trkpt>
      <trkpt lat="43.403099" lon="1.452816">
        <ele>177.1</ele>
        <time>2014-02-07T16:35:06Z</time>
      </trkpt>
      <trkpt lat="43.403134" lon="1.452697">
        <ele>177.1</ele>
        <time>2014-02-07T16:35:15Z</time>
      </trkpt>
      <trkpt lat="43.403186" lon="1.452583">
        <ele>177.2</ele>
        <time>2014-02-07T16:35:25Z</time>
      </trkpt>
      <trkpt lat="43.403219" lon="1.452474">
        <ele>176.8</ele>
        <time>2014-02-07T16:35:34Z</time>
      </trkpt>
      <trkpt lat="43.403264" lon="1.452378">
        <ele>177.1</ele>
        <time>2014-02-07T16:35:43Z</time>
      </trkpt>
      <trkpt lat="43.403306" lon="1.452260">
        <ele>176.9</ele>
        <time>2014-02-07T16:35:52Z</time>
      </trkpt>
      <trkpt lat="43.403346" lon="1.452146">
        <ele>176.8</ele>
        <time>2014-02-07T16:36:02Z</time>
      </trkpt>
      <trkpt lat="43.403394" lon="1.452028">
        <ele>176.6</ele>
        <time>2014-02-07T16:36:12Z</time>
      </trkpt>
      <trkpt lat="43.403461" lon="1.451940">
        <ele>176.6</ele>
        <time>2014-02-07T16:36:22Z</time>
      </trkpt>
      <trkpt lat="43.403505" lon="1.451824">
        <ele>176.4</ele>
        <time>2014-02-07T16:36:32Z</time>
      </trkpt>
      <trkpt lat="43.403542" lon="1.451702">
        <ele>176.6</ele>
        <time>2014-02-07T16:36:42Z</time>
      </trkpt>
      <trkpt lat="43.403579" lon="1.451591">
        <ele>176.6</ele>
        <time>2014-02-07T16:36:52Z</time>
      </trkpt>
      <trkpt lat="43.403635" lon="1.451482">
        <ele>176.6</ele>
        <time>2014-02-07T16:37:03Z</time>
      </trkpt>
      <trkpt lat="43.403666" lon="1.451345">
        <ele>176.5</ele>
        <time>2014-02-07T16:37:15Z</time>
      </trkpt>
      <trkpt lat="43.403712" lon="1.451231">
        <ele>176.2</ele>
        <time>2014-02-07T16:37:25Z</time>
      </trkpt>
      <trkpt lat="43.403759" lon="1.451092">
        <ele>176.2</ele>
        <time>2014-02-07T16:37:37Z</time>
      </trkpt>
      <trkpt lat="43.403802" lon="1.450950">
        <ele>176.1</ele>
        <time>2014-02-07T16:37:49Z</time>
      </trkpt>
      <trkpt lat="43.403851" lon="1.450833">
        <ele>176.2</ele>
        <time>2014-02-07T16:38:01Z</time>
      </trkpt>
      <trkpt lat="43.403914" lon="1.450772">
        <ele>176.2</ele>
        <time>2014-02-07T16:38:27Z</time>
      </trkpt>
      <trkpt lat="43.403958" lon="1.450641">
        <ele>176.0</ele>
        <time>2014-02-07T16:38:53Z</time>
      </trkpt>
      <trkpt lat="43.403999" lon="1.450518">
        <ele>175.8</ele>
        <time>2014-02-07T16:39:05Z</time>
      </trkpt>
      <trkpt lat="43.404066" lon="1.450397">
        <ele>175.9</ele>
        <time>2014-02-07T16:39:16Z</time>
      </trkpt>
      <trkpt lat="43.404116" lon="1.450274">
        <ele>175.9</ele>
        <time>2014-02-07T16:39:26Z</time>
      </trkpt>
      <trkpt lat="43.404160" lon="1.450146">
        <ele>175.8</ele>
        <time>2014-02-07T16:39:37Z</time>
      </trkpt>
      <trkpt lat="43.404189" lon="1.449992">
        <ele>175.6</ele>
        <time>2014-02-07T16:39:49Z</time>
      </trkpt>
      <trkpt lat="43.404220" lon="1.449841">
        <ele>175.3</ele>
        <time>2014-02-07T16:40:00Z</time>
      </trkpt>
      <trkpt lat="43.404254" lon="1.449685">
        <ele>175.0</ele>
        <time>2014-02-07T16:40:12Z</time>
      </trkpt>
      <trkpt lat="43.404286" lon="1.449559">
        <ele>175.0</ele>
        <time>2014-02-07T16:40:25Z</time>
      </trkpt>
      <trkpt lat="43.404333" lon="1.449397">
        <ele>175.0</ele>
        <time>2014-02-07T16:40:38Z</time>
      </trkpt>
      <trkpt lat="43.404387" lon="1.449275">
        <ele>175.0</ele>
        <time>2014-02-07T16:40:51Z</time>
      </trkpt>
      <trkpt lat="43.404416" lon="1.449119">
        <ele>174.8</ele>
        <time>2014-02-07T16:41:03Z</time>
      </trkpt>
      <trkpt lat="43.404497" lon="1.449004">
        <ele>174.7</ele>
        <time>2014-02-07T16:41:14Z</time>
      </trkpt>
      <trkpt lat="43.404544" lon="1.448881">
        <ele>174.5</ele>
        <time>2014-02-07T16:41:26Z</time>
      </trkpt>
      <trkpt lat="43.404593" lon="1.448751">
        <ele>174.4</ele>
        <time>2014-02-07T16:41:39Z</time>
      </trkpt>
      <trkpt lat="43.404625" lon="1.448625">
        <ele>174.1</ele>
        <time>2014-02-07T16:41:52Z</time>
      </trkpt>
      <trkpt lat="43.404514" lon="1.448616">
        <ele>174.1</ele>
        <time>2014-02-07T16:42:07Z</time>
      </trkpt>
      <trkpt lat="43.404462" lon="1.448724">
        <ele>174.3</ele>
        <time>2014-02-07T16:42:18Z</time>
      </trkpt>
      <trkpt lat="43.404420" lon="1.448783">
        <ele>174.5</ele>
        <time>2014-02-07T16:42:55Z</time>
      </trkpt>
    </trkseg>
  </trk>
</gpx>

